Observation data for Sweetwater on 02/22/2019      Previous  Date  Next       Current Mesonet Observations  Soil Data  Daily Summary Page  Observations in Plain Language
KSW1 220600Z 12012KT 05/02 A2991 RMK A01 T00510020  RH  081%=      5-min Rain = 0
KSW1 220601Z 12009KT 05/02 A2991 RMK A01 T00510020  RH  081%=      5-min Rain = 0
KSW1 220602Z 12010G16KT 05/02 A2991 RMK A01 T00500020  RH  081%=      5-min Rain = 0
KSW1 220603Z 12013KT 05/02 A299 RMK A01 T00500021  RH  081%=      5-min Rain = 0
KSW1 220604Z 12011KT 05/02 A299 RMK A01 T00510021  RH  081%=      5-min Rain = 0
KSW1 220605Z 11010KT 05/02 A299 RMK A01 T00510021  RH  081%=      5-min Rain = 0
KSW1 220606Z 12010KT 05/02 A299 RMK A01 T00500020  RH  081%=      5-min Rain = 0
KSW1 220607Z 11009KT 05/02 A299 RMK A01 T00500021  RH  081%=      5-min Rain = 0
KSW1 220608Z 13011KT 05/02 A299 RMK A01 T00500021  RH  081%=      5-min Rain = 0
KSW1 220609Z 12009KT 05/02 A299 RMK A01 T00500021  RH  082%=      5-min Rain = 0
KSW1 220610Z 11011KT 05/02 A299 RMK A01 T00500022  RH  082%=      5-min Rain = 0
KSW1 220611Z 11009KT 05/02 A299 RMK A01 T00500022  RH  082%=      5-min Rain = 0
KSW1 220612Z 11009KT 05/02 A299 RMK A01 T00500021  RH  082%=      5-min Rain = 0
KSW1 220613Z 12009KT 05/02 A299 RMK A01 T00500021  RH  081%=      5-min Rain = 0
KSW1 220614Z 13009G14KT 05/02 A299 RMK A01 T00500022  RH  082%=      5-min Rain = 0
KSW1 220615Z 12011KT 05/02 A299 RMK A01 T00500022  RH  082%=      5-min Rain = 0
KSW1 220616Z 12009KT 05/02 A299 RMK A01 T00500022  RH  082%=      5-min Rain = 0
KSW1 220617Z 12010KT 05/02 A299 RMK A01 T00510022  RH  082%=      5-min Rain = 0
KSW1 220618Z 12010KT 05/02 A299 RMK A01 T00510022  RH  082%=      5-min Rain = 0
KSW1 220619Z 13011KT 05/02 A299 RMK A01 T00510023  RH  082%=      5-min Rain = 0
KSW1 220620Z 12010KT 05/02 A299 RMK A01 T00510023  RH  083%=      5-min Rain = 0
KSW1 220621Z 12010KT 05/02 A299 RMK A01 T00510023  RH  083%=      5-min Rain = 0
KSW1 220622Z 13009KT 05/03 A299 RMK A01 T00510025  RH  083%=      5-min Rain = 0
KSW1 220623Z 12009KT 05/02 A299 RMK A01 T00510024  RH  083%=      5-min Rain = 0
KSW1 220624Z 13011KT 05/03 A299 RMK A01 T00510026  RH  084%=      5-min Rain = 0
KSW1 220625Z 13010KT 05/03 A299 RMK A01 T00510027  RH  084%=      5-min Rain = 0
KSW1 220626Z 13009KT 05/03 A299 RMK A01 T00520028  RH  085%=      5-min Rain = 0
KSW1 220627Z 12007KT 05/03 A299 RMK A01 T00530029  RH  085%=      5-min Rain = 0
KSW1 220628Z 13007KT 05/03 A299 RMK A01 T00540030  RH  085%=      5-min Rain = 0
KSW1 220629Z 13008KT 05/03 A299 RMK A01 T00540030  RH  085%=      5-min Rain = 0
KSW1 220630Z 12008KT 06/03 A299 RMK A01 T00550031  RH  085%=      5-min Rain = 0
KSW1 220631Z 13008KT 06/03 A299 RMK A01 T00560033  RH  085%=      5-min Rain = 0
KSW1 220632Z 14009KT 06/03 A299 RMK A01 T00570034  RH  085%=      5-min Rain = 0
KSW1 220633Z 14008KT 06/04 A299 RMK A01 T00570036  RH  086%=      5-min Rain = 0
KSW1 220634Z 14012KT 06/04 A299 RMK A01 T00580037  RH  086%=      5-min Rain = 0
KSW1 220635Z 14013KT 06/04 A299 RMK A01 T00590039  RH  087%=      5-min Rain = 0
KSW1 220636Z 14013KT 06/04 A299 RMK A01 T00600040  RH  087%=      5-min Rain = 0
KSW1 220637Z 14014KT 06/04 A299 RMK A01 T00600041  RH  088%=      5-min Rain = 0
KSW1 220638Z 14012KT 06/04 A299 RMK A01 T00600042  RH  088%=      5-min Rain = 0
KSW1 220639Z 14010KT 06/04 A2989 RMK A01 T00590042  RH  088%=      5-min Rain = 0
KSW1 220640Z 14011KT 06/04 A2989 RMK A01 T00590042  RH  089%=      5-min Rain = 0
KSW1 220641Z 14012KT 06/04 A2989 RMK A01 T00600043  RH  089%=      5-min Rain = 0
KSW1 220642Z 14010KT 06/04 A2989 RMK A01 T00590043  RH  089%=      5-min Rain = 0
KSW1 220643Z 14014KT 06/04 A2989 RMK A01 T00590044  RH  090%=      5-min Rain = 0
KSW1 220644Z 14013KT 06/04 A2989 RMK A01 T00590044  RH  090%=      5-min Rain = 0
KSW1 220645Z 14014KT 06/04 A2989 RMK A01 T00590044  RH  090%=      5-min Rain = 0
KSW1 220646Z 14013G18KT 06/05 A2989 RMK A01 T00600045  RH  090%=      5-min Rain = 0
KSW1 220647Z 14012KT 06/05 A2989 RMK A01 T00600045  RH  090%=      5-min Rain = 0
KSW1 220648Z 14011G16KT 06/05 A2989 RMK A01 T00600045  RH  090%=      5-min Rain = 0
KSW1 220649Z 14015KT 06/05 A2989 RMK A01 T00600045  RH  090%=      5-min Rain = 0
KSW1 220650Z 14013KT 06/05 A2989 RMK A01 T00600045  RH  090%=      5-min Rain = 0
KSW1 220651Z 14011KT 06/05 A2989 RMK A01 T00610045  RH  090%=      5-min Rain = 0
KSW1 220652Z 14011KT 06/05 A2989 RMK A01 T00610045  RH  090%=      5-min Rain = 0
KSW1 220653Z 14009KT 06/05 A2989 RMK A01 T00610045  RH  090%=      5-min Rain = 0
KSW1 220654Z 14008KT 06/05 A2989 RMK A01 T00610045  RH  089%=      5-min Rain = 0
KSW1 220655Z 14010KT 06/05 A2989 RMK A01 T00620045  RH  089%=      5-min Rain = 0
KSW1 220656Z 14009KT 06/05 A2989 RMK A01 T00620045  RH  089%=      5-min Rain = 0
KSW1 220657Z 14010KT 06/05 A2989 RMK A01 T00630046  RH  089%=      5-min Rain = 0
KSW1 220658Z 14009KT 06/05 A2988 RMK A01 T00630046  RH  089%=      5-min Rain = 0
KSW1 220659Z 14011KT 06/05 A2988 RMK A01 T00640046  RH  088%=      5-min Rain = 0
KSW1 220700Z 14008KT 06/05 A2988 RMK A01 T00640046  RH  088%=      5-min Rain = 0
KSW1 220701Z 14012KT 06/05 A2988 RMK A01 T00640046  RH  088%=      5-min Rain = 0
KSW1 220702Z 13011KT 06/05 A2988 RMK A01 T00640046  RH  088%=      5-min Rain = 0
KSW1 220703Z 13011KT 07/05 A2988 RMK A01 T00650046  RH  088%=      5-min Rain = 0
KSW1 220704Z 13008KT 07/05 A2988 RMK A01 T00650046  RH  088%=      5-min Rain = 0
KSW1 220705Z 13013KT 07/05 A2988 RMK A01 T00650047  RH  088%=      5-min Rain = 0
KSW1 220706Z 13011KT 07/05 A2988 RMK A01 T00650047  RH  088%=      5-min Rain = 0
KSW1 220707Z 13010KT 07/05 A2988 RMK A01 T00650047  RH  088%=      5-min Rain = 0
KSW1 220708Z 13009KT 07/05 A2988 RMK A01 T00650047  RH  088%=      5-min Rain = 0
KSW1 220709Z 13011KT 07/05 A2988 RMK A01 T00650048  RH  088%=      5-min Rain = 0
KSW1 220710Z 14012KT 07/05 A2988 RMK A01 T00650048  RH  089%=      5-min Rain = 0
KSW1 220711Z 13012KT 07/05 A2987 RMK A01 T00650048  RH  089%=      5-min Rain = 0
KSW1 220712Z 13012KT 07/05 A2987 RMK A01 T00650048  RH  089%=      5-min Rain = 0
KSW1 220713Z 13010KT 07/05 A2987 RMK A01 T00650048  RH  089%=      5-min Rain = 0
KSW1 220714Z 13011KT 07/05 A2987 RMK A01 T00650048  RH  089%=      5-min Rain = 0
KSW1 220715Z 13010KT 07/05 A2987 RMK A01 T00650048  RH  089%=      5-min Rain = 0
KSW1 220716Z 13009KT 07/05 A2987 RMK A01 T00650049  RH  089%=      5-min Rain = 0
KSW1 220717Z 13010KT 07/05 A2987 RMK A01 T00650049  RH  090%=      5-min Rain = 0
KSW1 220718Z 14011KT 07/05 A2987 RMK A01 T00650050  RH  090%=      5-min Rain = 0
KSW1 220719Z 12010KT 07/05 A2987 RMK A01 T00650050  RH  090%=      5-min Rain = 0
KSW1 220720Z 13009KT 07/05 A2987 RMK A01 T00650050  RH  090%=      5-min Rain = 0
KSW1 220721Z 13012KT 07/05 A2987 RMK A01 T00650050  RH  091%=      5-min Rain = 0
KSW1 220722Z 14009KT 06/05 A2987 RMK A01 T00640051  RH  091%=      5-min Rain = 0
KSW1 220723Z 14009G15KT 06/05 A2987 RMK A01 T00640050  RH  091%=      5-min Rain = 0
KSW1 220724Z 13008KT 06/05 A2987 RMK A01 T00640050  RH  091%=      5-min Rain = 0
KSW1 220725Z 13010KT 06/05 A2987 RMK A01 T00640050  RH  091%=      5-min Rain = 0
KSW1 220726Z 14009KT 06/05 A2987 RMK A01 T00640051  RH  091%=      5-min Rain = 0
KSW1 220727Z 14009KT 06/05 A2987 RMK A01 T00630050  RH  092%=      5-min Rain = 0
KSW1 220728Z 14010KT 06/05 A2987 RMK A01 T00630050  RH  092%=      5-min Rain = 0
KSW1 220729Z 14009KT 06/05 A2987 RMK A01 T00630050  RH  092%=      5-min Rain = 0
KSW1 220730Z 14008KT 06/05 A2987 RMK A01 T00630050  RH  092%=      5-min Rain = 0
KSW1 220731Z 13010KT 06/05 A2987 RMK A01 T00630050  RH  092%=      5-min Rain = 0
KSW1 220732Z 13010KT 06/05 A2987 RMK A01 T00620050  RH  092%=      5-min Rain = 0
KSW1 220733Z 13010KT 06/05 A2987 RMK A01 T00630051  RH  092%=      5-min Rain = 0
KSW1 220734Z 14010KT 06/05 A2987 RMK A01 T00630050  RH  092%=      5-min Rain = 0
KSW1 220735Z 14011KT 06/05 A2987 RMK A01 T00630051  RH  092%=      5-min Rain = 0
KSW1 220736Z 13011KT 06/05 A2987 RMK A01 T00630051  RH  092%=      5-min Rain = 0
KSW1 220737Z 13008KT 06/05 A2987 RMK A01 T00620051  RH  092%=      5-min Rain = 0
KSW1 220738Z 14012KT 06/05 A2987 RMK A01 T00620051  RH  092%=      5-min Rain = 0
KSW1 220739Z 13009KT 06/05 A2987 RMK A01 T00630051  RH  092%=      5-min Rain = 0
KSW1 220740Z 13011KT 06/05 A2987 RMK A01 T00630051  RH  092%=      5-min Rain = 0
KSW1 220741Z 13011KT 06/05 A2987 RMK A01 T00630051  RH  093%=      5-min Rain = 0
KSW1 220742Z 13011KT 06/05 A2987 RMK A01 T00630052  RH  093%=      5-min Rain = 0
KSW1 220743Z 13014KT 06/05 A2987 RMK A01 T00620052  RH  093%=      5-min Rain = 0
KSW1 220744Z 13012KT 06/05 A2987 RMK A01 T00620052  RH  093%=      5-min Rain = 0
KSW1 220745Z 13010KT 06/05 A2987 RMK A01 T00630052  RH  093%=      5-min Rain = 0
KSW1 220746Z 14009KT 06/05 A2987 RMK A01 T00630052  RH  093%=      5-min Rain = 0
KSW1 220747Z 14010KT 06/05 A2987 RMK A01 T00630052  RH  093%=      5-min Rain = 0
KSW1 220748Z 14009KT 06/05 A2987 RMK A01 T00630052  RH  093%=      5-min Rain = 0
KSW1 220749Z 14010KT 06/05 A2987 RMK A01 T00630052  RH  093%=      5-min Rain = 0
KSW1 220750Z 14012G18KT 06/05 A2987 RMK A01 T00630052  RH  093%=      5-min Rain = 0
KSW1 220751Z 14012KT 06/05 A2987 RMK A01 T00630053  RH  094%=      5-min Rain = 0
KSW1 220752Z 14011KT 06/05 A2987 RMK A01 T00630053  RH  094%=      5-min Rain = 0
KSW1 220753Z 13012KT 06/05 A2987 RMK A01 T00630053  RH  093%=      5-min Rain = 0
KSW1 220754Z 14011KT 06/05 A2987 RMK A01 T00620053  RH  093%=      5-min Rain = 0
KSW1 220755Z 14011KT 06/05 A2987 RMK A01 T00630052  RH  093%=      5-min Rain = 0
KSW1 220756Z 13010KT 06/05 A2987 RMK A01 T00620052  RH  093%=      5-min Rain = 0
KSW1 220757Z 14009KT 06/05 A2987 RMK A01 T00630052  RH  093%=      5-min Rain = 0
KSW1 220758Z 13009KT 06/05 A2987 RMK A01 T00630052  RH  093%=      5-min Rain = 0
KSW1 220759Z 13010KT 06/05 A2987 RMK A01 T00630052  RH  093%=      5-min Rain = 0
KSW1 220800Z 14011KT 06/05 A2987 RMK A01 T00620052  RH  093%=      5-min Rain = 0
KSW1 220801Z 13010KT 06/05 A2987 RMK A01 T00630052  RH  093%=      5-min Rain = 0
KSW1 220802Z 13009KT 06/05 A2987 RMK A01 T00630052  RH  093%=      5-min Rain = 0
KSW1 220803Z 13011KT 06/05 A2987 RMK A01 T00620052  RH  093%=      5-min Rain = 0
KSW1 220804Z 13012KT 06/05 A2987 RMK A01 T00630052  RH  093%=      5-min Rain = 0
KSW1 220805Z 12012KT 06/05 A2987 RMK A01 T00630051  RH  093%=      5-min Rain = 0
KSW1 220806Z 13011KT 06/05 A2987 RMK A01 T00630051  RH  092%=      5-min Rain = 0
KSW1 220807Z 13008KT 06/05 A2987 RMK A01 T00630051  RH  092%=      5-min Rain = 0
KSW1 220808Z 13011KT 06/05 A2987 RMK A01 T00620050  RH  092%=      5-min Rain = 0
KSW1 220809Z 13010KT 06/05 A2987 RMK A01 T00620050  RH  092%=      5-min Rain = 0
KSW1 220810Z 13011KT 06/05 A2987 RMK A01 T00620050  RH  092%=      5-min Rain = 0
KSW1 220811Z 12012KT 06/05 A2987 RMK A01 T00620050  RH  092%=      5-min Rain = 0
KSW1 220812Z 13012KT 06/05 A2987 RMK A01 T00630050  RH  092%=      5-min Rain = 0
KSW1 220813Z 12010KT 06/05 A2987 RMK A01 T00630050  RH  092%=      5-min Rain = 0
KSW1 220814Z 12013KT 06/05 A2987 RMK A01 T00630050  RH  092%=      5-min Rain = 0
KSW1 220815Z 13009KT 06/05 A2987 RMK A01 T00630050  RH  091%=      5-min Rain = 0
KSW1 220816Z 12009KT 06/05 A2987 RMK A01 T00630049  RH  091%=      5-min Rain = 0
KSW1 220817Z 12011KT 06/05 A2987 RMK A01 T00620049  RH  091%=      5-min Rain = 0
KSW1 220818Z 12010KT 06/05 A2987 RMK A01 T00620050  RH  092%=      5-min Rain = 0
KSW1 220819Z 12011KT 06/05 A2987 RMK A01 T00620050  RH  092%=      5-min Rain = 0
KSW1 220820Z 12011KT 06/05 A2987 RMK A01 T00620051  RH  092%=      5-min Rain = 0
KSW1 220821Z 13012KT 06/05 A2987 RMK A01 T00620051  RH  093%=      5-min Rain = 0
KSW1 220822Z 12010KT 06/05 A2987 RMK A01 T00620051  RH  093%=      5-min Rain = 0
KSW1 220823Z 12011KT 06/05 A2987 RMK A01 T00620051  RH  093%=      5-min Rain = 0
KSW1 220824Z 12010KT 06/05 A2987 RMK A01 T00620051  RH  093%=      5-min Rain = 0
KSW1 220825Z 12010KT 06/05 A2987 RMK A01 T00620051  RH  093%=      5-min Rain = 0
KSW1 220826Z 12007KT 06/05 A2987 RMK A01 T00620051  RH  093%=      5-min Rain = 0
KSW1 220827Z 12008KT 06/05 A2987 RMK A01 T00620050  RH  093%=      5-min Rain = 0
KSW1 220828Z 12011KT 06/05 A2987 RMK A01 T00610051  RH  093%=      5-min Rain = 0
KSW1 220829Z 12010KT 06/05 A2987 RMK A01 T00620051  RH  093%=      5-min Rain = 0
KSW1 220830Z 11008KT 06/05 A2987 RMK A01 T00620051  RH  093%=      5-min Rain = 0
KSW1 220831Z 11008KT 06/05 A2987 RMK A01 T00620051  RH  093%=      5-min Rain = 0
KSW1 220832Z 12011KT 06/05 A2987 RMK A01 T00620052  RH  093%=      5-min Rain = 0
KSW1 220833Z 12010KT 06/05 A2987 RMK A01 T00620052  RH  094%=      5-min Rain = 0
KSW1 220834Z 12010KT 06/05 A2987 RMK A01 T00620052  RH  094%=      5-min Rain = 0
KSW1 220835Z 12010KT 06/05 A2987 RMK A01 T00620052  RH  094%=      5-min Rain = 0
KSW1 220836Z 13008KT 06/05 A2987 RMK A01 T00610052  RH  094%=      5-min Rain = 0
KSW1 220837Z 13008KT 06/05 A2987 RMK A01 T00610052  RH  094%=      5-min Rain = 0
KSW1 220838Z 12010KT 06/05 A2987 RMK A01 T00610052  RH  094%=      5-min Rain = 0
KSW1 220839Z 12009KT 06/05 A2987 RMK A01 T00610052  RH  094%=      5-min Rain = 0
KSW1 220840Z 12008KT 06/05 A2987 RMK A01 T00610053  RH  094%=      5-min Rain = 0
KSW1 220841Z 12008KT 06/05 A2987 RMK A01 T00610053  RH  094%=      5-min Rain = 0
KSW1 220842Z 12008KT 06/05 A2987 RMK A01 T00610053  RH  094%=      5-min Rain = 0
KSW1 220843Z 13005KT 06/05 A2987 RMK A01 T00610053  RH  094%=      5-min Rain = 0
KSW1 220844Z 13007KT 06/05 A2988 RMK A01 T00610053  RH  094%=      5-min Rain = 0
KSW1 220845Z 13007KT 06/05 A2988 RMK A01 T00610053  RH  094%=      5-min Rain = 0
KSW1 220846Z 14005KT 06/05 A2988 RMK A01 T00610053  RH  095%=      5-min Rain = 0
KSW1 220847Z 13006KT 06/05 A2988 RMK A01 T00610053  RH  095%=      5-min Rain = 0
KSW1 220848Z 12006KT 06/05 A2988 RMK A01 T00610053  RH  095%=      5-min Rain = 0
KSW1 220849Z 15004KT 06/05 A2988 RMK A01 T00610053  RH  095%=      5-min Rain = 0
KSW1 220850Z 13003KT 06/05 A2988 RMK A01 T00610054  RH  095%=      5-min Rain = 0
KSW1 220851Z 14005KT 06/05 A2988 RMK A01 T00610054  RH  095%=      5-min Rain = 0
KSW1 220852Z 13005KT 06/05 A2988 RMK A01 T00610054  RH  095%=      5-min Rain = 0
KSW1 220853Z 12004KT 06/06 A2988 RMK A01 T00610055  RH  096%=      5-min Rain = 0
KSW1 220854Z 13006KT 06/06 A2988 RMK A01 T00620055  RH  096%=      5-min Rain = 0
KSW1 220855Z 13005KT 06/06 A2988 RMK A01 T00620056  RH  096%=      5-min Rain = 0
KSW1 220856Z 14007KT 06/06 A2988 RMK A01 T00620056  RH  096%=      5-min Rain = 0
KSW1 220857Z 13006KT 06/06 A2988 RMK A01 T00620056  RH  096%=      5-min Rain = 0
KSW1 220858Z 13004KT 06/06 A2988 RMK A01 T00620057  RH  096%=      5-min Rain = 0
KSW1 220859Z 14006KT 06/06 A2988 RMK A01 T00620057  RH  096%=      5-min Rain = 0
KSW1 220900Z 13005KT 06/06 A2988 RMK A01 T00620057  RH  096%=      5-min Rain = 0
KSW1 220901Z 12005KT 06/06 A2988 RMK A01 T00620057  RH  097%=      5-min Rain = 0
KSW1 220902Z 12008KT 06/06 A2988 RMK A01 T00630057  RH  097%=      5-min Rain = 0
KSW1 220903Z 13007KT 06/06 A2987 RMK A01 T00630058  RH  097%=      5-min Rain = 0
KSW1 220904Z 12006KT 06/06 A2987 RMK A01 T00630058  RH  097%=      5-min Rain = 0
KSW1 220905Z 12007KT 06/06 A2987 RMK A01 T00630058  RH  097%=      5-min Rain = 0
KSW1 220906Z 13009KT 06/06 A2988 RMK A01 T00630058  RH  097%=      5-min Rain = 0
KSW1 220907Z 12007KT 06/06 A2988 RMK A01 T00630058  RH  097%=      5-min Rain = 0
KSW1 220908Z 14008KT 06/06 A2988 RMK A01 T00630058  RH  097%=      5-min Rain = 0
KSW1 220909Z 14007KT 06/06 A2987 RMK A01 T00630058  RH  097%=      5-min Rain = 0
KSW1 220910Z 13008KT 06/06 A2988 RMK A01 T00630058  RH  097%=      5-min Rain = 0
KSW1 220911Z 14007KT 06/06 A2988 RMK A01 T00640058  RH  096%=      5-min Rain = 0
KSW1 220912Z 14007KT 06/06 A2988 RMK A01 T00630058  RH  096%=      5-min Rain = 0
KSW1 220913Z 14006KT 06/06 A2988 RMK A01 T00640058  RH  096%=      5-min Rain = 0
KSW1 220914Z 14007KT 06/06 A2988 RMK A01 T00630058  RH  096%=      5-min Rain = 0
KSW1 220915Z 14007KT 06/06 A2988 RMK A01 T00640059  RH  096%=      5-min Rain = 0
KSW1 220916Z 14007KT 06/06 A2988 RMK A01 T00640058  RH  096%=      5-min Rain = 0
KSW1 220917Z 13006KT 06/06 A2988 RMK A01 T00640058  RH  096%=      5-min Rain = 0
KSW1 220918Z 13007KT 06/06 A2988 RMK A01 T00640058  RH  096%=      5-min Rain = 0
KSW1 220919Z 14006KT 06/06 A2988 RMK A01 T00640058  RH  096%=      5-min Rain = 0
KSW1 220920Z 14006KT 06/06 A2988 RMK A01 T00640058  RH  096%=      5-min Rain = 0
KSW1 220921Z 13006KT 06/06 A2988 RMK A01 T00640058  RH  096%=      5-min Rain = 0
KSW1 220922Z 14006KT 06/06 A2988 RMK A01 T00640058  RH  096%=      5-min Rain = 0
KSW1 220923Z 13007KT 06/06 A2989 RMK A01 T00640058  RH  096%=      5-min Rain = 0
KSW1 220924Z 13007KT 06/06 A2988 RMK A01 T00640057  RH  096%=      5-min Rain = 0
KSW1 220925Z 12005KT 06/06 A2989 RMK A01 T00640058  RH  096%=      5-min Rain = 0
KSW1 220926Z 12006KT 06/06 A2989 RMK A01 T00640058  RH  096%=      5-min Rain = 0
KSW1 220927Z 13007KT 06/06 A2989 RMK A01 T00640058  RH  096%=      5-min Rain = 0
KSW1 220928Z 13007KT 06/06 A2989 RMK A01 T00640058  RH  096%=      5-min Rain = 0
KSW1 220929Z 13006KT 06/06 A2989 RMK A01 T00640058  RH  096%=      5-min Rain = 0
KSW1 220930Z 13006KT 06/06 A2988 RMK A01 T00640058  RH  096%=      5-min Rain = 0
KSW1 220931Z 13004KT 07/06 A2988 RMK A01 T00650058  RH  096%=      5-min Rain = 0
KSW1 220932Z 14005G10KT 06/06 A2989 RMK A01 T00640058  RH  096%=      5-min Rain = 0
KSW1 220933Z 14008KT 06/06 A2989 RMK A01 T00640058  RH  096%=      5-min Rain = 0
KSW1 220934Z 14006KT 07/06 A2989 RMK A01 T00650059  RH  096%=      5-min Rain = 0
KSW1 220935Z 14006KT 07/06 A2989 RMK A01 T00650059  RH  096%=      5-min Rain = 0
KSW1 220936Z 14009KT 07/06 A2989 RMK A01 T00650059  RH  096%=      5-min Rain = 0
KSW1 220937Z 14010KT 07/06 A2989 RMK A01 T00650059  RH  096%=      5-min Rain = 0
KSW1 220938Z 14008KT 07/06 A2989 RMK A01 T00650060  RH  096%=      5-min Rain = 0
KSW1 220939Z 13007KT 06/06 A2989 RMK A01 T00640059  RH  097%=      5-min Rain = 0
KSW1 220940Z 14010KT 07/06 A2989 RMK A01 T00650060  RH  097%=      5-min Rain = 0
KSW1 220941Z 13010KT 06/06 A2989 RMK A01 T00640060  RH  097%=      5-min Rain = 0
KSW1 220942Z 13011KT 06/06 A2989 RMK A01 T00640059  RH  097%=      5-min Rain = 0
KSW1 220943Z 14010KT 06/06 A2989 RMK A01 T00640059  RH  097%=      5-min Rain = 0
KSW1 220944Z 14010KT 06/06 A2989 RMK A01 T00640060  RH  097%=      5-min Rain = 0
KSW1 220945Z 14009KT 06/06 A2989 RMK A01 T00640059  RH  097%=      5-min Rain = 0
KSW1 220946Z 14011KT 06/06 A2989 RMK A01 T00630059  RH  097%=      5-min Rain = 0
KSW1 220947Z 13011KT 06/06 A2989 RMK A01 T00630059  RH  097%=      5-min Rain = 0
KSW1 220948Z 13010KT 06/06 A2989 RMK A01 T00630059  RH  097%=      5-min Rain = 0
KSW1 220949Z 14011KT 06/06 A2989 RMK A01 T00630058  RH  097%=      5-min Rain = 0
KSW1 220950Z 13011KT 06/06 A2989 RMK A01 T00620058  RH  097%=      5-min Rain = 0
KSW1 220951Z 13008KT 06/06 A2989 RMK A01 T00620058  RH  097%=      5-min Rain = 0
KSW1 220952Z 13008KT 06/06 A2989 RMK A01 T00620058  RH  097%=      5-min Rain = 0
KSW1 220953Z 13010KT 06/06 A2989 RMK A01 T00620058  RH  097%=      5-min Rain = 0
KSW1 220954Z 13011KT 06/06 A2989 RMK A01 T00620058  RH  097%=      5-min Rain = 0
KSW1 220955Z 13010KT 06/06 A2989 RMK A01 T00620058  RH  097%=      5-min Rain = 0
KSW1 220956Z 13009KT 06/06 A2988 RMK A01 T00620057  RH  097%=      5-min Rain = 0
KSW1 220957Z 13008KT 06/06 A2989 RMK A01 T00620058  RH  097%=      5-min Rain = 0
KSW1 220958Z 13009KT 06/06 A2989 RMK A01 T00620058  RH  097%=      5-min Rain = 0
KSW1 220959Z 13011KT 06/06 A2989 RMK A01 T00620058  RH  097%=      5-min Rain = 0
KSW1 221000Z 13012KT 06/06 A2989 RMK A01 T00610057  RH  097%=      5-min Rain = 0
KSW1 221001Z 13010KT 06/06 A2989 RMK A01 T00620057  RH  097%=      5-min Rain = 0
KSW1 221002Z 13011KT 06/06 A2989 RMK A01 T00620057  RH  097%=      5-min Rain = 0
KSW1 221003Z 13010KT 06/06 A2988 RMK A01 T00610057  RH  097%=      5-min Rain = 0
KSW1 221004Z 14009KT 06/06 A2988 RMK A01 T00610057  RH  097%=      5-min Rain = 0
KSW1 221005Z 14009KT 06/06 A2988 RMK A01 T00610057  RH  097%=      5-min Rain = 0
KSW1 221006Z 13011KT 06/06 A2988 RMK A01 T00610057  RH  097%=      5-min Rain = 0
KSW1 221007Z 13012KT 06/06 A2988 RMK A01 T00610057  RH  097%=      5-min Rain = 0
KSW1 221008Z 13014KT 06/06 A2988 RMK A01 T00610057  RH  097%=      5-min Rain = 0
KSW1 221009Z 14012KT 06/06 A2988 RMK A01 T00610057  RH  097%=      5-min Rain = 0
KSW1 221010Z 13011KT 06/06 A2988 RMK A01 T00610056  RH  097%=      5-min Rain = 0
KSW1 221011Z 13009KT 06/06 A2988 RMK A01 T00610056  RH  096%=      5-min Rain = 0
KSW1 221012Z 13009KT 06/06 A2988 RMK A01 T00620056  RH  096%=      5-min Rain = 0
KSW1 221013Z 14012KT 06/06 A2989 RMK A01 T00620056  RH  096%=      5-min Rain = 0
KSW1 221014Z 14010KT 06/06 A2988 RMK A01 T00620057  RH  096%=      5-min Rain = 0
KSW1 221015Z 13010KT 06/06 A2988 RMK A01 T00620056  RH  096%=      5-min Rain = 0
KSW1 221016Z 14010KT 06/06 A2988 RMK A01 T00620056  RH  096%=      5-min Rain = 0
KSW1 221017Z 13007KT 06/06 A2989 RMK A01 T00630056  RH  096%=      5-min Rain = 0
KSW1 221018Z 12008KT 06/06 A2989 RMK A01 T00620056  RH  096%=      5-min Rain = 0
KSW1 221019Z 13010KT 06/06 A2989 RMK A01 T00630056  RH  095%=      5-min Rain = 0
KSW1 221020Z 14006KT 06/06 A2989 RMK A01 T00630056  RH  095%=      5-min Rain = 0
KSW1 221021Z 14009G14KT 06/06 A2989 RMK A01 T00630056  RH  095%=      5-min Rain = 0
KSW1 221022Z 14008KT 06/06 A2989 RMK A01 T00630057  RH  096%=      5-min Rain = 0
KSW1 221023Z 14006KT 06/06 A2989 RMK A01 T00640057  RH  096%=      5-min Rain = 0
KSW1 221024Z 14007G13KT 06/06 A2989 RMK A01 T00630057  RH  096%=      5-min Rain = 0
KSW1 221025Z 13009KT 06/06 A2989 RMK A01 T00640057  RH  096%=      5-min Rain = 0
KSW1 221026Z 13008KT 06/06 A2989 RMK A01 T00640057  RH  096%=      5-min Rain = 0
KSW1 221027Z 14008KT 06/06 A2989 RMK A01 T00640057  RH  096%=      5-min Rain = 0
KSW1 221028Z 13006KT 06/06 A2989 RMK A01 T00630057  RH  095%=      5-min Rain = 0
KSW1 221029Z 14007KT 06/06 A2989 RMK A01 T00640057  RH  095%=      5-min Rain = 0
KSW1 221030Z 13005KT 06/06 A2989 RMK A01 T00640057  RH  095%=      5-min Rain = 0
KSW1 221031Z 13005KT 06/06 A2989 RMK A01 T00640057  RH  095%=      5-min Rain = 0
KSW1 221032Z 13007KT 06/06 A2989 RMK A01 T00640057  RH  095%=      5-min Rain = 0
KSW1 221033Z 14008KT 06/06 A2989 RMK A01 T00640057  RH  095%=      5-min Rain = 0
KSW1 221034Z 15007KT 06/06 A2989 RMK A01 T00640057  RH  095%=      5-min Rain = 0
KSW1 221035Z 13004KT 06/06 A2989 RMK A01 T00640057  RH  095%=      5-min Rain = 0
KSW1 221036Z 13005KT 06/06 A2989 RMK A01 T00640057  RH  095%=      5-min Rain = 0
KSW1 221037Z 15007KT 06/06 A2989 RMK A01 T00640057  RH  095%=      5-min Rain = 0
KSW1 221038Z 15008KT 07/06 A2989 RMK A01 T00650057  RH  095%=      5-min Rain = 0
KSW1 221039Z 14006KT 06/06 A2989 RMK A01 T00640057  RH  095%=      5-min Rain = 0
KSW1 221040Z 14007KT 06/06 A2989 RMK A01 T00640057  RH  095%=      5-min Rain = 0
KSW1 221041Z 15008KT 06/06 A2989 RMK A01 T00640057  RH  095%=      5-min Rain = 0
KSW1 221042Z 14008KT 06/06 A2989 RMK A01 T00640057  RH  095%=      5-min Rain = 0
KSW1 221043Z 14007KT 06/06 A2989 RMK A01 T00640057  RH  095%=      5-min Rain = 0
KSW1 221044Z 14010KT 06/06 A2989 RMK A01 T00640057  RH  095%=      5-min Rain = 0
KSW1 221045Z 14009KT 06/06 A2989 RMK A01 T00640057  RH  095%=      5-min Rain = 0
KSW1 221046Z 14010KT 06/06 A2989 RMK A01 T00640057  RH  095%=      5-min Rain = 0
KSW1 221047Z 15008KT 07/06 A2989 RMK A01 T00650057  RH  095%=      5-min Rain = 0
KSW1 221048Z 15007KT 06/06 A2989 RMK A01 T00640057  RH  095%=      5-min Rain = 0
KSW1 221049Z 14007KT 07/06 A2989 RMK A01 T00650057  RH  095%=      5-min Rain = 0
KSW1 221050Z 15008KT 06/06 A2989 RMK A01 T00640057  RH  095%=      5-min Rain = 0
KSW1 221051Z 14009KT 06/06 A2989 RMK A01 T00640058  RH  095%=      5-min Rain = 0
KSW1 221052Z 14008KT 07/06 A2989 RMK A01 T00650058  RH  095%=      5-min Rain = 0
KSW1 221053Z 14007KT 07/06 A2989 RMK A01 T00650058  RH  095%=      5-min Rain = 0
KSW1 221054Z 14007KT 07/06 A2989 RMK A01 T00650058  RH  095%=      5-min Rain = 0
KSW1 221055Z 14007KT 07/06 A2989 RMK A01 T00650058  RH  095%=      5-min Rain = 0
KSW1 221056Z 15007KT 07/06 A2989 RMK A01 T00650058  RH  095%=      5-min Rain = 0
KSW1 221057Z 13006KT 07/06 A299 RMK A01 T00650058  RH  096%=      5-min Rain = 0
KSW1 221058Z 13005KT 07/06 A299 RMK A01 T00650058  RH  096%=      5-min Rain = 0
KSW1 221059Z 13004KT 07/06 A299 RMK A01 T00650058  RH  096%=      5-min Rain = 0
KSW1 221100Z 13005KT 07/06 A299 RMK A01 T00650058  RH  096%=      5-min Rain = 0
KSW1 221101Z 14004KT 07/06 A299 RMK A01 T00650058  RH  096%=      5-min Rain = 0
KSW1 221102Z 12004KT 07/06 A299 RMK A01 T00650059  RH  096%=      5-min Rain = 0
KSW1 221103Z 13003KT 07/06 A299 RMK A01 T00650059  RH  096%=      5-min Rain = 0
KSW1 221104Z 12003KT 07/06 A299 RMK A01 T00650059  RH  096%=      5-min Rain = 0
KSW1 221105Z 12004KT 07/06 A2991 RMK A01 T00660059  RH  096%=      5-min Rain = 0
KSW1 221106Z 12004KT 07/06 A2991 RMK A01 T00660059  RH  096%=      5-min Rain = 0
KSW1 221107Z 12006KT 07/06 A2991 RMK A01 T00660059  RH  096%=      5-min Rain = 0
KSW1 221108Z 12005KT 07/06 A2991 RMK A01 T00660059  RH  096%=      5-min Rain = 0
KSW1 221109Z 12005KT 07/06 A2991 RMK A01 T00660059  RH  096%=      5-min Rain = 0
KSW1 221110Z 11005KT 07/06 A2991 RMK A01 T00660059  RH  096%=      5-min Rain = 0
KSW1 221111Z 12005KT 07/06 A2991 RMK A01 T00660059  RH  096%=      5-min Rain = 0
KSW1 221112Z 12006KT 07/06 A2991 RMK A01 T00660059  RH  096%=      5-min Rain = 0
KSW1 221113Z 12006KT 07/06 A2991 RMK A01 T00660060  RH  096%=      5-min Rain = 0
KSW1 221114Z 12005KT 07/06 A2991 RMK A01 T00660060  RH  096%=      5-min Rain = 0
KSW1 221115Z 14005KT 07/06 A2991 RMK A01 T00660060  RH  096%=      5-min Rain = 0
KSW1 221116Z 13005KT 07/06 A2991 RMK A01 T00660060  RH  096%=      5-min Rain = 0
KSW1 221117Z 12005KT 07/06 A2991 RMK A01 T00660060  RH  096%=      5-min Rain = 0
KSW1 221118Z 11005KT 07/06 A2992 RMK A01 T00660061  RH  096%=      5-min Rain = 0
KSW1 221119Z 11004KT 07/06 A2992 RMK A01 T00660060  RH  096%=      5-min Rain = 0
KSW1 221120Z 11004KT 07/06 A2992 RMK A01 T00660061  RH  096%=      5-min Rain = 0
KSW1 221121Z 11004KT 07/06 A2992 RMK A01 T00660060  RH  096%=      5-min Rain = 0
KSW1 221122Z 11004KT 07/06 A2992 RMK A01 T00660060  RH  096%=      5-min Rain = 0
KSW1 221123Z 10004KT 07/06 A2992 RMK A01 T00660061  RH  096%=      5-min Rain = 0
KSW1 221124Z 10003KT 07/06 A2992 RMK A01 T00660061  RH  096%=      5-min Rain = 0
KSW1 221125Z 09003KT 07/06 A2992 RMK A01 T00660060  RH  096%=      5-min Rain = 0
KSW1 221126Z 09003KT 07/06 A2992 RMK A01 T00660061  RH  096%=      5-min Rain = 0
KSW1 221127Z 10003KT 07/06 A2992 RMK A01 T00660061  RH  097%=      5-min Rain = 0
KSW1 221128Z 09003KT 07/06 A2992 RMK A01 T00660061  RH  097%=      5-min Rain = 0
KSW1 221129Z 10003KT 07/06 A2992 RMK A01 T00660061  RH  097%=      5-min Rain = 0
KSW1 221130Z 09003KT 07/06 A2992 RMK A01 T00660061  RH  097%=      5-min Rain = 0
KSW1 221131Z 08003KT 07/06 A2992 RMK A01 T00660061  RH  097%=      5-min Rain = 0
KSW1 221132Z 09004KT 07/06 A2992 RMK A01 T00660061  RH  097%=      5-min Rain = 0
KSW1 221133Z 06003KT 07/06 A2992 RMK A01 T00660061  RH  097%=      5-min Rain = 0
KSW1 221134Z 08004KT 07/06 A2992 RMK A01 T00660061  RH  097%=      5-min Rain = 0
KSW1 221135Z 07005KT 07/06 A2992 RMK A01 T00660061  RH  097%=      5-min Rain = 0
KSW1 221136Z 07004KT 07/06 A2992 RMK A01 T00660061  RH  097%=      5-min Rain = 0
KSW1 221137Z 06004KT 07/06 A2992 RMK A01 T00660061  RH  097%=      5-min Rain = 0
KSW1 221138Z 07004KT 07/06 A2992 RMK A01 T00660062  RH  097%=      5-min Rain = 0
KSW1 221139Z 08004KT 07/06 A2992 RMK A01 T00660062  RH  097%=      5-min Rain = 0
KSW1 221140Z 10005KT 07/06 A2992 RMK A01 T00660062  RH  097%=      5-min Rain = 0
KSW1 221141Z 09004KT 07/06 A2992 RMK A01 T00660062  RH  097%=      5-min Rain = 0
KSW1 221142Z 09004KT 07/06 A2992 RMK A01 T00660062  RH  097%=      5-min Rain = 0
KSW1 221143Z 09003KT 07/06 A2992 RMK A01 T00660062  RH  097%=      5-min Rain = 0
KSW1 221144Z 09003KT 07/06 A2992 RMK A01 T00660062  RH  097%=      5-min Rain = 0
KSW1 221145Z 09003KT 07/06 A2992 RMK A01 T00660062  RH  097%=      5-min Rain = 0
KSW1 221146Z 09003KT 07/06 A2992 RMK A01 T00660062  RH  097%=      5-min Rain = 0
KSW1 221147Z 10003KT 07/06 A2992 RMK A01 T00660062  RH  098%=      5-min Rain = 0
KSW1 221148Z 11004KT 07/06 A2992 RMK A01 T00660062  RH  098%=      5-min Rain = 0
KSW1 221149Z 12005KT 07/06 A2992 RMK A01 T00660062  RH  098%=      5-min Rain = 0
KSW1 221150Z 13006KT 07/06 A2992 RMK A01 T00660063  RH  098%=      5-min Rain = 0
KSW1 221151Z 13006KT 07/06 A2992 RMK A01 T00670064  RH  098%=      5-min Rain = 0
KSW1 221152Z 12005KT 07/06 A2992 RMK A01 T00680064  RH  098%=      5-min Rain = 0
KSW1 221153Z 12005KT 07/06 A2992 RMK A01 T00680064  RH  098%=      5-min Rain = 0
KSW1 221154Z 12005KT 07/06 A2992 RMK A01 T00680064  RH  098%=      5-min Rain = 0
KSW1 221155Z 12005KT 07/06 A2992 RMK A01 T00680064  RH  098%=      5-min Rain = 0
KSW1 221156Z 12004KT 07/06 A2993 RMK A01 T00680064  RH  098%=      5-min Rain = 0
KSW1 221157Z 12005KT 07/06 A2993 RMK A01 T00670064  RH  098%=      5-min Rain = 0
KSW1 221158Z 11004KT 07/06 A2993 RMK A01 T00680064  RH  098%=      5-min Rain = 0
KSW1 221159Z 11003KT 07/06 A2993 RMK A01 T00670064  RH  098%=      5-min Rain = 0
KSW1 221200Z 10003KT 07/06 A2993 RMK A01 T00670064  RH  098%=      5-min Rain = 0
KSW1 221201Z 11003KT 07/06 A2993 RMK A01 T00680064  RH  098%=      5-min Rain = 0
KSW1 221202Z 10004KT 07/06 A2993 RMK A01 T00680064  RH  098%=      5-min Rain = 0
KSW1 221203Z 10003KT 07/06 A2993 RMK A01 T00670064  RH  098%=      5-min Rain = 0
KSW1 221204Z 11004KT 07/06 A2993 RMK A01 T00680064  RH  098%=      5-min Rain = 0
KSW1 221205Z 10003KT 07/06 A2993 RMK A01 T00680064  RH  098%=      5-min Rain = 0
KSW1 221206Z 09003KT 07/06 A2993 RMK A01 T00680064  RH  098%=      5-min Rain = 0
KSW1 221207Z 09003KT 07/06 A2993 RMK A01 T00670064  RH  098%=      5-min Rain = 0
KSW1 221208Z 09002KT 07/06 A2993 RMK A01 T00670064  RH  098%=      5-min Rain = 0
KSW1 221209Z 09002KT 07/06 A2993 RMK A01 T00670064  RH  098%=      5-min Rain = 0
KSW1 221210Z 07003KT 07/06 A2993 RMK A01 T00670064  RH  098%=      5-min Rain = 0
KSW1 221211Z 07002KT 07/06 A2993 RMK A01 T00670064  RH  098%=      5-min Rain = 0
KSW1 221212Z 08002KT 07/06 A2993 RMK A01 T00670063  RH  098%=      5-min Rain = 0
KSW1 221213Z 08003KT 07/06 A2993 RMK A01 T00670064  RH  098%=      5-min Rain = 0
KSW1 221214Z 07003KT 07/06 A2993 RMK A01 T00670064  RH  098%=      5-min Rain = 0
KSW1 221215Z 06003KT 07/06 A2993 RMK A01 T00670064  RH  098%=      5-min Rain = 0
KSW1 221216Z 06003KT 07/06 A2993 RMK A01 T00670064  RH  098%=      5-min Rain = 0
KSW1 221217Z 05003KT 07/06 A2993 RMK A01 T00670064  RH  098%=      5-min Rain = 0
KSW1 221218Z 06004KT 07/06 A2993 RMK A01 T00670063  RH  098%=      5-min Rain = 0
KSW1 221219Z 05003KT 07/06 A2993 RMK A01 T00670064  RH  098%=      5-min Rain = 0
KSW1 221220Z 06003KT 07/06 A2993 RMK A01 T00670064  RH  098%=      5-min Rain = 0
KSW1 221221Z 06003KT 07/06 A2993 RMK A01 T00670064  RH  098%=      5-min Rain = 0
KSW1 221222Z 05003KT 07/06 A2993 RMK A01 T00670064  RH  098%=      5-min Rain = 0
KSW1 221223Z 05004KT 07/06 A2994 RMK A01 T00670064  RH  098%=      5-min Rain = 0
KSW1 221224Z 06003KT 07/06 A2994 RMK A01 T00670064  RH  098%=      5-min Rain = 0
KSW1 221225Z 06004KT 07/06 A2994 RMK A01 T00670064  RH  098%=      5-min Rain = 0
KSW1 221226Z 06004KT 07/06 A2994 RMK A01 T00670064  RH  098%=      5-min Rain = 0
KSW1 221227Z 06004KT 07/06 A2994 RMK A01 T00670064  RH  098%=      5-min Rain = 0
KSW1 221228Z 06003KT 07/06 A2994 RMK A01 T00670064  RH  098%=      5-min Rain = 0
KSW1 221229Z 06003KT 07/06 A2994 RMK A01 T00670064  RH  098%=      5-min Rain = 0
KSW1 221230Z 07004KT 07/06 A2994 RMK A01 T00670064  RH  098%=      5-min Rain = 0
KSW1 221231Z 07004KT 07/06 A2994 RMK A01 T00670064  RH  098%=      5-min Rain = 0
KSW1 221232Z 07004KT 07/06 A2994 RMK A01 T00670064  RH  098%=      5-min Rain = 0
KSW1 221233Z 07005KT 07/06 A2994 RMK A01 T00670064  RH  098%=      5-min Rain = 0
KSW1 221234Z 07005KT 07/06 A2994 RMK A01 T00670064  RH  098%=      5-min Rain = 0
KSW1 221235Z 07005KT 07/06 A2994 RMK A01 T00670064  RH  098%=      5-min Rain = 0
KSW1 221236Z 08005KT 07/06 A2994 RMK A01 T00670064  RH  098%=      5-min Rain = 0
KSW1 221237Z 08006KT 07/06 A2994 RMK A01 T00670064  RH  098%=      5-min Rain = 0
KSW1 221238Z 07007KT 07/06 A2994 RMK A01 T00670064  RH  098%=      5-min Rain = 0
KSW1 221239Z 07006KT 07/06 A2994 RMK A01 T00670064  RH  098%=      5-min Rain = 0
KSW1 221240Z 07006KT 07/06 A2994 RMK A01 T00670064  RH  098%=      5-min Rain = 0
KSW1 221241Z 07007KT 07/06 A2994 RMK A01 T00670064  RH  098%=      5-min Rain = 0
KSW1 221242Z 07006KT 07/06 A2994 RMK A01 T00670064  RH  098%=      5-min Rain = 0
KSW1 221243Z 08005KT 07/06 A2994 RMK A01 T00670064  RH  098%=      5-min Rain = 0
KSW1 221244Z 07005KT 07/06 A2994 RMK A01 T00670064  RH  098%=      5-min Rain = 0
KSW1 221245Z 07006KT 07/06 A2994 RMK A01 T00670064  RH  098%=      5-min Rain = 0
KSW1 221246Z 08006KT 07/06 A2994 RMK A01 T00670064  RH  098%=      5-min Rain = 0
KSW1 221247Z 08005KT 07/06 A2994 RMK A01 T00670064  RH  098%=      5-min Rain = 0
KSW1 221248Z 07005KT 07/06 A2994 RMK A01 T00670064  RH  098%=      5-min Rain = 0
KSW1 221249Z 07006KT 07/06 A2994 RMK A01 T00670064  RH  098%=      5-min Rain = 0
KSW1 221250Z 07006KT 07/06 A2994 RMK A01 T00670064  RH  098%=      5-min Rain = 0
KSW1 221251Z 08006KT 07/06 A2994 RMK A01 T00670064  RH  098%=      5-min Rain = 0
KSW1 221252Z 08004KT 07/06 A2994 RMK A01 T00670064  RH  098%=      5-min Rain = 0
KSW1 221253Z 08005KT 07/06 A2994 RMK A01 T00670064  RH  098%=      5-min Rain = 0
KSW1 221254Z 08006KT 07/06 A2994 RMK A01 T00670064  RH  098%=      5-min Rain = 0
KSW1 221255Z 09005KT 07/07 A2994 RMK A01 T00670065  RH  098%=      5-min Rain = 0
KSW1 221256Z 08005KT 07/06 A2994 RMK A01 T00670064  RH  098%=      5-min Rain = 0
KSW1 221257Z 08006KT 07/06 A2994 RMK A01 T00670064  RH  098%=      5-min Rain = 0
KSW1 221258Z 09006KT 07/07 A2994 RMK A01 T00670065  RH  098%=      5-min Rain = 0
KSW1 221259Z 09006KT 07/07 A2994 RMK A01 T00670065  RH  098%=      5-min Rain = 0
KSW1 221300Z 09006KT 07/07 A2994 RMK A01 T00670065  RH  098%=      5-min Rain = 0
KSW1 221301Z 09006KT 07/07 A2994 RMK A01 T00670065  RH  098%=      5-min Rain = 0
KSW1 221302Z 09006KT 07/07 A2994 RMK A01 T00670065  RH  098%=      5-min Rain = 0
KSW1 221303Z 09005KT 07/07 A2994 RMK A01 T00670065  RH  098%=      5-min Rain = 0
KSW1 221304Z 09005KT 07/07 A2994 RMK A01 T00670065  RH  098%=      5-min Rain = 0
KSW1 221305Z 09006KT 07/07 A2994 RMK A01 T00670065  RH  098%=      5-min Rain = 0
KSW1 221306Z 09005KT 07/07 A2994 RMK A01 T00670065  RH  098%=      5-min Rain = 0
KSW1 221307Z 08005KT 07/07 A2994 RMK A01 T00670065  RH  098%=      5-min Rain = 0
KSW1 221308Z 08005KT 07/07 A2994 RMK A01 T00670065  RH  098%=      5-min Rain = 0
KSW1 221309Z 08005KT 07/07 A2994 RMK A01 T00670065  RH  098%=      5-min Rain = 0
KSW1 221310Z 09005KT 07/07 A2994 RMK A01 T00670065  RH  098%=      5-min Rain = 0
KSW1 221311Z 08005KT 07/07 A2994 RMK A01 T00670065  RH  098%=      5-min Rain = 0
KSW1 221312Z 08004KT 07/07 A2994 RMK A01 T00680065  RH  098%=      5-min Rain = 0
KSW1 221313Z 08004KT 07/07 A2994 RMK A01 T00670065  RH  098%=      5-min Rain = 0
KSW1 221314Z 08005KT 07/07 A2995 RMK A01 T00680065  RH  098%=      5-min Rain = 0
KSW1 221315Z 09005KT 07/07 A2995 RMK A01 T00680065  RH  098%=      5-min Rain = 0
KSW1 221316Z 09005KT 07/07 A2995 RMK A01 T00680066  RH  098%=      5-min Rain = 0
KSW1 221317Z 10004KT 07/07 A2995 RMK A01 T00680066  RH  098%=      5-min Rain = 0
KSW1 221318Z 09004KT 07/07 A2995 RMK A01 T00680066  RH  098%=      5-min Rain = 0
KSW1 221319Z 09005KT 07/07 A2995 RMK A01 T00690066  RH  098%=      5-min Rain = 0
KSW1 221320Z 09005KT 07/07 A2995 RMK A01 T00680066  RH  098%=      5-min Rain = 0
KSW1 221321Z 08004KT 07/07 A2995 RMK A01 T00690066  RH  098%=      5-min Rain = 0
KSW1 221322Z 08005KT 07/07 A2995 RMK A01 T00680066  RH  098%=      5-min Rain = 0
KSW1 221323Z 08005KT 07/07 A2995 RMK A01 T00680066  RH  098%=      5-min Rain = 0
KSW1 221324Z 07004KT 07/07 A2995 RMK A01 T00690067  RH  099%=      5-min Rain = 0
KSW1 221325Z 08005KT 07/07 A2995 RMK A01 T00690067  RH  099%=      5-min Rain = 0
KSW1 221326Z 08005KT 07/07 A2995 RMK A01 T00690067  RH  099%=      5-min Rain = 0
KSW1 221327Z 08005KT 07/07 A2995 RMK A01 T00690067  RH  099%=      5-min Rain = 0
KSW1 221328Z 08006KT 07/07 A2995 RMK A01 T00690067  RH  099%=      5-min Rain = 0
KSW1 221329Z 08006KT 07/07 A2995 RMK A01 T00690067  RH  099%=      5-min Rain = 0
KSW1 221330Z 08006KT 07/07 A2994 RMK A01 T00690067  RH  099%=      5-min Rain = 0
KSW1 221331Z 08006KT 07/07 A2994 RMK A01 T00690067  RH  099%=      5-min Rain = 0
KSW1 221332Z 09004KT 07/07 A2994 RMK A01 T00690067  RH  099%=      5-min Rain = 0
KSW1 221333Z 08005KT 07/07 A2994 RMK A01 T00690067  RH  099%=      5-min Rain = 0
KSW1 221334Z 08004KT 07/07 A2994 RMK A01 T00690067  RH  099%=      5-min Rain = 0
KSW1 221335Z 08004KT 07/07 A2994 RMK A01 T00690067  RH  099%=      5-min Rain = 0
KSW1 221336Z 07003KT 07/07 A2995 RMK A01 T00690067  RH  099%=      5-min Rain = 0
KSW1 221337Z 07004KT 07/07 A2995 RMK A01 T00690067  RH  099%=      5-min Rain = 0
KSW1 221338Z 07004KT 07/07 A2995 RMK A01 T00690067  RH  099%=      5-min Rain = 0
KSW1 221339Z 07005KT 07/07 A2995 RMK A01 T00690067  RH  099%=      5-min Rain = 0
KSW1 221340Z 06006KT 07/07 A2994 RMK A01 T00690067  RH  099%=      5-min Rain = 0
KSW1 221341Z 06007KT 07/07 A2995 RMK A01 T00690067  RH  099%=      5-min Rain = 0
KSW1 221342Z 05006KT 07/07 A2995 RMK A01 T00690066  RH  099%=      5-min Rain = 0
KSW1 221343Z 06005KT 07/07 A2995 RMK A01 T00690066  RH  099%=      5-min Rain = 0
KSW1 221344Z 06005KT 07/07 A2995 RMK A01 T00690066  RH  099%=      5-min Rain = 0
KSW1 221345Z 05006KT 07/07 A2995 RMK A01 T00690066  RH  099%=      5-min Rain = 0
KSW1 221346Z 06007KT 07/07 A2995 RMK A01 T00680066  RH  099%=      5-min Rain = 0
KSW1 221347Z 06007KT 07/07 A2995 RMK A01 T00680066  RH  099%=      5-min Rain = 0
KSW1 221348Z 06006KT 07/07 A2995 RMK A01 T00680066  RH  099%=      5-min Rain = 0
KSW1 221349Z 06006KT 07/07 A2995 RMK A01 T00680065  RH  099%=      5-min Rain = 0
KSW1 221350Z 06007KT 07/07 A2995 RMK A01 T00670065  RH  099%=      5-min Rain = 0
KSW1 221351Z 06006KT 07/07 A2995 RMK A01 T00680066  RH  099%=      5-min Rain = 0
KSW1 221352Z 06006KT 07/07 A2995 RMK A01 T00670065  RH  099%=      5-min Rain = 0
KSW1 221353Z 06006KT 07/07 A2995 RMK A01 T00680065  RH  099%=      5-min Rain = 0
KSW1 221354Z 06005KT 07/07 A2995 RMK A01 T00680066  RH  099%=      5-min Rain = 0
KSW1 221355Z 06007KT 07/07 A2995 RMK A01 T00680066  RH  099%=      5-min Rain = 0
KSW1 221356Z 06006KT 07/07 A2995 RMK A01 T00680066  RH  099%=      5-min Rain = 0
KSW1 221357Z 07005KT 07/07 A2995 RMK A01 T00680066  RH  099%=      5-min Rain = 0
KSW1 221358Z 07005KT 07/07 A2995 RMK A01 T00690066  RH  099%=      5-min Rain = 0
KSW1 221359Z 07006KT 07/07 A2995 RMK A01 T00690067  RH  099%=      5-min Rain = 0
KSW1 221400Z 08005KT 07/07 A2995 RMK A01 T00690067  RH  099%=      5-min Rain = 0
KSW1 221401Z 07005KT 07/07 A2995 RMK A01 T00690067  RH  099%=      5-min Rain = 0
KSW1 221402Z 07006KT 07/07 A2995 RMK A01 T00690067  RH  099%=      5-min Rain = 0
KSW1 221403Z 07006KT 07/07 A2995 RMK A01 T00690067  RH  099%=      5-min Rain = 0
KSW1 221404Z 07007KT 07/07 A2995 RMK A01 T00690067  RH  099%=      5-min Rain = 0
KSW1 221405Z 07007KT 07/07 A2995 RMK A01 T00690067  RH  099%=      5-min Rain = 0
KSW1 221406Z 07007KT 07/07 A2995 RMK A01 T00700067  RH  099%=      5-min Rain = 0
KSW1 221407Z 07006KT 07/07 A2995 RMK A01 T00700068  RH  099%=      5-min Rain = 0
KSW1 221408Z 07006KT 07/07 A2996 RMK A01 T00690067  RH  099%=      5-min Rain = 0
KSW1 221409Z 07006KT 07/07 A2996 RMK A01 T00690067  RH  099%=      5-min Rain = 0
KSW1 221410Z 07007KT 07/07 A2996 RMK A01 T00700067  RH  099%=      5-min Rain = 0
KSW1 221411Z 06006KT 07/07 A2996 RMK A01 T00690067  RH  099%=      5-min Rain = 0
KSW1 221412Z 06006KT 07/07 A2996 RMK A01 T00690067  RH  099%=      5-min Rain = 0
KSW1 221413Z 07007KT 07/07 A2996 RMK A01 T00700067  RH  099%=      5-min Rain = 0
KSW1 221414Z 07007KT 07/07 A2996 RMK A01 T00690067  RH  099%=      5-min Rain = 0
KSW1 221415Z 07006KT 07/07 A2996 RMK A01 T00700068  RH  099%=      5-min Rain = 0
KSW1 221416Z 07007KT 07/07 A2996 RMK A01 T00690067  RH  099%=      5-min Rain = 0
KSW1 221417Z 07008KT 07/07 A2996 RMK A01 T00700068  RH  099%=      5-min Rain = 0
KSW1 221418Z 08008KT 07/07 A2996 RMK A01 T00690067  RH  099%=      5-min Rain = 0
KSW1 221419Z 08008KT 07/07 A2996 RMK A01 T00690067  RH  099%=      5-min Rain = 0
KSW1 221420Z 08008KT 07/07 A2996 RMK A01 T00700068  RH  099%=      5-min Rain = 0
KSW1 221421Z 08008KT 07/07 A2996 RMK A01 T00700068  RH  099%=      5-min Rain = 0
KSW1 221422Z 08008KT 07/07 A2996 RMK A01 T00700068  RH  099%=      5-min Rain = 0
KSW1 221423Z 08007KT 07/07 A2996 RMK A01 T00700068  RH  099%=      5-min Rain = 0
KSW1 221424Z 08008KT 07/07 A2996 RMK A01 T00700068  RH  099%=      5-min Rain = 0
KSW1 221425Z 08008KT 07/07 A2996 RMK A01 T00700068  RH  099%=      5-min Rain = 0
KSW1 221426Z 08008KT 07/07 A2996 RMK A01 T00700068  RH  099%=      5-min Rain = 0
KSW1 221427Z 08009KT 07/07 A2996 RMK A01 T00700068  RH  099%=      5-min Rain = 0
KSW1 221428Z 09008KT 07/07 A2996 RMK A01 T00700068  RH  099%=      5-min Rain = 0
KSW1 221429Z 09008KT 07/07 A2996 RMK A01 T00710069  RH  099%=      5-min Rain = 0
KSW1 221430Z 09007KT 07/07 A2996 RMK A01 T00710069  RH  099%=      5-min Rain = 0
KSW1 221431Z 10007KT 07/07 A2996 RMK A01 T00710069  RH  099%=      5-min Rain = 0
KSW1 221432Z 09007KT 07/07 A2996 RMK A01 T00720070  RH  099%=      5-min Rain = 0
KSW1 221433Z 10008KT 07/07 A2996 RMK A01 T00720070  RH  099%=      5-min Rain = 0
KSW1 221434Z 10008KT 07/07 A2996 RMK A01 T00720070  RH  099%=      5-min Rain = 0
KSW1 221435Z 10009KT 07/07 A2996 RMK A01 T00720070  RH  099%=      5-min Rain = 0
KSW1 221436Z 10009KT 07/07 A2996 RMK A01 T00720070  RH  099%=      5-min Rain = 0
KSW1 221437Z 10009KT 07/07 A2996 RMK A01 T00720070  RH  099%=      5-min Rain = 0
KSW1 221438Z 11008KT 07/07 A2996 RMK A01 T00720070  RH  099%=      5-min Rain = 0
KSW1 221439Z 10009KT 07/07 A2996 RMK A01 T00730071  RH  099%=      5-min Rain = 0
KSW1 221440Z 11009KT 07/07 A2996 RMK A01 T00730071  RH  099%=      5-min Rain = 0
KSW1 221441Z 10008KT 07/07 A2996 RMK A01 T00740072  RH  099%=      5-min Rain = 0
KSW1 221442Z 10008KT 07/07 A2996 RMK A01 T00740072  RH  099%=      5-min Rain = 0
KSW1 221443Z 10008KT 07/07 A2996 RMK A01 T00740072  RH  099%=      5-min Rain = 0
KSW1 221444Z 10008KT 07/07 A2996 RMK A01 T00740072  RH  099%=      5-min Rain = 0
KSW1 221445Z 11007KT 08/07 A2996 RMK A01 T00750073  RH  099%=      5-min Rain = 0
KSW1 221446Z 10007KT 08/07 A2997 RMK A01 T00750073  RH  099%=      5-min Rain = 0
KSW1 221447Z 10008KT 08/07 A2997 RMK A01 T00750074  RH  099%=      5-min Rain = 0
KSW1 221448Z 10008KT 08/07 A2997 RMK A01 T00750073  RH  099%=      5-min Rain = 0
KSW1 221449Z 10007KT 08/07 A2997 RMK A01 T00750074  RH  099%=      5-min Rain = 0
KSW1 221450Z 10009KT 08/07 A2997 RMK A01 T00760074  RH  099%=      5-min Rain = 0
KSW1 221451Z 10009KT 08/07 A2997 RMK A01 T00760074  RH  099%=      5-min Rain = 0
KSW1 221452Z 10009KT 08/07 A2997 RMK A01 T00760074  RH  099%=      5-min Rain = 0
KSW1 221453Z 11007KT 08/07 A2997 RMK A01 T00760074  RH  099%=      5-min Rain = 0
KSW1 221454Z 10008KT 08/08 A2997 RMK A01 T00770075  RH  099%=      5-min Rain = 0
KSW1 221455Z 10007KT 08/07 A2997 RMK A01 T00760074  RH  099%=      5-min Rain = 0
KSW1 221456Z 10006KT 08/07 A2997 RMK A01 T00760074  RH  099%=      5-min Rain = 0
KSW1 221457Z 10006KT 08/08 A2997 RMK A01 T00770075  RH  099%=      5-min Rain = 0
KSW1 221458Z 10005KT 08/08 A2997 RMK A01 T00770076  RH  099%=      5-min Rain = 0
KSW1 221459Z 10005KT 08/08 A2997 RMK A01 T00780076  RH  099%=      5-min Rain = 0
KSW1 221500Z 09006KT 08/08 A2997 RMK A01 T00780076  RH  099%=      5-min Rain = 0
KSW1 221501Z 10006KT 08/08 A2998 RMK A01 T00780076  RH  099%=      5-min Rain = 0
KSW1 221502Z 10006KT 08/08 A2998 RMK A01 T00780076  RH  099%=      5-min Rain = 0
KSW1 221503Z 10004KT 08/08 A2998 RMK A01 T00780076  RH  099%=      5-min Rain = 0
KSW1 221504Z 10005KT 08/08 A2998 RMK A01 T00780076  RH  099%=      5-min Rain = 0
KSW1 221505Z 10005KT 08/08 A2998 RMK A01 T00780076  RH  099%=      5-min Rain = 0
KSW1 221506Z 09004KT 08/08 A2998 RMK A01 T00790077  RH  099%=      5-min Rain = 0
KSW1 221507Z 09004KT 08/08 A2998 RMK A01 T00790077  RH  099%=      5-min Rain = 0
KSW1 221508Z 11004KT 08/08 A2998 RMK A01 T00790077  RH  099%=      5-min Rain = 0
KSW1 221509Z 10005KT 08/08 A2998 RMK A01 T00790077  RH  099%=      5-min Rain = 0
KSW1 221510Z 10004KT 08/08 A2998 RMK A01 T00790077  RH  099%=      5-min Rain = 0
KSW1 221511Z 10005KT 08/08 A2998 RMK A01 T00800078  RH  099%=      5-min Rain = 0
KSW1 221512Z 09006KT 08/08 A2998 RMK A01 T00800078  RH  099%=      5-min Rain = 0
KSW1 221513Z 10006KT 08/08 A2998 RMK A01 T00810080  RH  099%=      5-min Rain = 0
KSW1 221514Z 10005KT 08/08 A2998 RMK A01 T00810079  RH  099%=      5-min Rain = 0
KSW1 221515Z 11004KT 08/08 A2998 RMK A01 T00810079  RH  099%=      5-min Rain = 0
KSW1 221516Z 11004KT 08/08 A2998 RMK A01 T00820080  RH  099%=      5-min Rain = 0
KSW1 221517Z 13003KT 08/08 A2998 RMK A01 T00830081  RH  099%=      5-min Rain = 0
KSW1 221518Z 12003KT 08/08 A2998 RMK A01 T00830081  RH  099%=      5-min Rain = 0
KSW1 221519Z 13002KT 08/08 A2998 RMK A01 T00830081  RH  099%=      5-min Rain = 0
KSW1 221520Z 16002KT 08/08 A2998 RMK A01 T00830081  RH  099%=      5-min Rain = 0
KSW1 221521Z 16002KT 08/08 A2998 RMK A01 T00830081  RH  099%=      5-min Rain = 0
KSW1 221522Z 14002KT 08/08 A2998 RMK A01 T00830081  RH  099%=      5-min Rain = 0
KSW1 221523Z 13002KT 08/08 A2998 RMK A01 T00840082  RH  099%=      5-min Rain = 0
KSW1 221524Z 15002KT 08/08 A2998 RMK A01 T00840082  RH  099%=      5-min Rain = 0
KSW1 221525Z 15002KT 08/08 A2998 RMK A01 T00840082  RH  099%=      5-min Rain = 0
KSW1 221526Z 14002KT 08/08 A2998 RMK A01 T00840082  RH  099%=      5-min Rain = 0
KSW1 221527Z 14002KT 08/08 A2998 RMK A01 T00840082  RH  099%=      5-min Rain = 0
KSW1 221528Z 14003KT 08/08 A2998 RMK A01 T00840082  RH  099%=      5-min Rain = 0
KSW1 221529Z 14002KT 08/08 A2998 RMK A01 T00840082  RH  099%=      5-min Rain = 0
KSW1 221530Z 14001KT 08/08 A2997 RMK A01 T00840082  RH  099%=      5-min Rain = 0
KSW1 221531Z 15003KT 08/08 A2997 RMK A01 T00840082  RH  099%=      5-min Rain = 0
KSW1 221532Z 12002KT 08/08 A2997 RMK A01 T00840082  RH  099%=      5-min Rain = 0
KSW1 221533Z 11002KT 08/08 A2997 RMK A01 T00840083  RH  099%=      5-min Rain = 0
KSW1 221534Z 11002KT 09/08 A2997 RMK A01 T00850083  RH  099%=      5-min Rain = 0
KSW1 221535Z 13003KT 09/08 A2997 RMK A01 T00850083  RH  099%=      5-min Rain = 0
KSW1 221536Z 12003KT 09/08 A2997 RMK A01 T00860084  RH  099%=      5-min Rain = 0
KSW1 221537Z 11004KT 09/08 A2997 RMK A01 T00860084  RH  099%=      5-min Rain = 0
KSW1 221538Z 11003KT 09/08 A2997 RMK A01 T00860084  RH  099%=      5-min Rain = 0
KSW1 221539Z 13003KT 09/09 A2997 RMK A01 T00860085  RH  099%=      5-min Rain = 0
KSW1 221540Z 12003KT 09/09 A2997 RMK A01 T00860085  RH  099%=      5-min Rain = 0
KSW1 221541Z 12004KT 09/09 A2997 RMK A01 T00870085  RH  099%=      5-min Rain = 0
KSW1 221542Z 13004KT 09/09 A2997 RMK A01 T00870085  RH  099%=      5-min Rain = 0
KSW1 221543Z 10003KT 09/09 A2997 RMK A01 T00870085  RH  099%=      5-min Rain = 0
KSW1 221544Z 12004KT 09/09 A2997 RMK A01 T00880086  RH  099%=      5-min Rain = 0
KSW1 221545Z 11003KT 09/09 A2997 RMK A01 T00880086  RH  099%=      5-min Rain = 0
KSW1 221546Z 11004KT 09/09 A2997 RMK A01 T00880086  RH  099%=      5-min Rain = 0
KSW1 221547Z 12003KT 09/09 A2997 RMK A01 T00880086  RH  099%=      5-min Rain = 0
KSW1 221548Z 12004KT 09/09 A2997 RMK A01 T00880086  RH  099%=      5-min Rain = 0
KSW1 221549Z 12004KT 09/09 A2997 RMK A01 T00880087  RH  099%=      5-min Rain = 0
KSW1 221550Z 12005KT 09/09 A2997 RMK A01 T00890087  RH  099%=      5-min Rain = 0
KSW1 221551Z 13005KT 09/09 A2997 RMK A01 T00890087  RH  099%=      5-min Rain = 0
KSW1 221552Z 13004KT 09/09 A2997 RMK A01 T00900088  RH  099%=      5-min Rain = 0
KSW1 221553Z 13005KT 09/09 A2997 RMK A01 T00900088  RH  099%=      5-min Rain = 0
KSW1 221554Z 13005KT 09/09 A2997 RMK A01 T00900088  RH  099%=      5-min Rain = 0
KSW1 221555Z 15004KT 09/09 A2997 RMK A01 T00900088  RH  099%=      5-min Rain = 0
KSW1 221556Z 16004KT 09/09 A2997 RMK A01 T00900089  RH  099%=      5-min Rain = 0
KSW1 221557Z 15004KT 09/09 A2997 RMK A01 T00910089  RH  099%=      5-min Rain = 0
KSW1 221558Z 16004KT 09/09 A2997 RMK A01 T00900088  RH  099%=      5-min Rain = 0
KSW1 221559Z 17005KT 09/09 A2997 RMK A01 T00910089  RH  099%=      5-min Rain = 0
KSW1 221600Z 16003KT 09/09 A2997 RMK A01 T00910089  RH  099%=      5-min Rain = 0
KSW1 221601Z 16003KT 09/09 A2997 RMK A01 T00910089  RH  099%=      5-min Rain = 0
KSW1 221602Z 17002KT 09/09 A2997 RMK A01 T00920090  RH  099%=      5-min Rain = 0
KSW1 221603Z 15004KT 09/09 A2997 RMK A01 T00920090  RH  099%=      5-min Rain = 0
KSW1 221604Z 15003KT 09/09 A2996 RMK A01 T00920090  RH  099%=      5-min Rain = 0
KSW1 221605Z 15003KT 09/09 A2996 RMK A01 T00920090  RH  099%=      5-min Rain = 0
KSW1 221606Z 16004KT 09/09 A2996 RMK A01 T00920090  RH  099%=      5-min Rain = 0
KSW1 221607Z 16004KT 09/09 A2996 RMK A01 T00920090  RH  099%=      5-min Rain = 0
KSW1 221608Z 17004KT 09/09 A2996 RMK A01 T00920090  RH  099%=      5-min Rain = 0
KSW1 221609Z 18003KT 09/09 A2997 RMK A01 T00920090  RH  099%=      5-min Rain = 0
KSW1 221610Z 17003KT 09/09 A2997 RMK A01 T00930091  RH  099%=      5-min Rain = 0
KSW1 221611Z 16003KT 09/09 A2996 RMK A01 T00930091  RH  099%=      5-min Rain = 0
KSW1 221612Z 15003KT 09/09 A2996 RMK A01 T00930091  RH  099%=      5-min Rain = 0
KSW1 221613Z 14004KT 09/09 A2997 RMK A01 T00940092  RH  099%=      5-min Rain = 0
KSW1 221614Z 14003KT 09/09 A2996 RMK A01 T00930091  RH  099%=      5-min Rain = 0
KSW1 221615Z 13002KT 09/09 A2996 RMK A01 T00930091  RH  099%=      5-min Rain = 0
KSW1 221616Z 14004KT 09/09 A2996 RMK A01 T00930091  RH  099%=      5-min Rain = 0
KSW1 221617Z 16005KT 09/09 A2996 RMK A01 T00940092  RH  099%=      5-min Rain = 0
KSW1 221618Z 16004KT 09/09 A2996 RMK A01 T00940092  RH  099%=      5-min Rain = 0
KSW1 221619Z 15004KT 09/09 A2996 RMK A01 T00940092  RH  099%=      5-min Rain = 0
KSW1 221620Z 16003KT 09/09 A2996 RMK A01 T00940092  RH  099%=      5-min Rain = 0
KSW1 221621Z 15003KT 09/09 A2996 RMK A01 T00940092  RH  099%=      5-min Rain = 0
KSW1 221622Z 13003KT 10/09 A2996 RMK A01 T00950093  RH  099%=      5-min Rain = 0
KSW1 221623Z 15003KT 10/09 A2996 RMK A01 T00960094  RH  099%=      5-min Rain = 0
KSW1 221624Z 14003KT 10/09 A2996 RMK A01 T00960094  RH  099%=      5-min Rain = 0
KSW1 221625Z 15003KT 10/09 A2996 RMK A01 T00960094  RH  099%=      5-min Rain = 0
KSW1 221626Z 16004KT 10/09 A2996 RMK A01 T00960094  RH  099%=      5-min Rain = 0
KSW1 221627Z 16004KT 10/09 A2996 RMK A01 T00960094  RH  099%=      5-min Rain = 0
KSW1 221628Z 17003KT 10/10 A2996 RMK A01 T00970095  RH  099%=      5-min Rain = 0
KSW1 221629Z 15004KT 10/10 A2996 RMK A01 T00970095  RH  099%=      5-min Rain = 0
KSW1 221630Z 14004KT 10/10 A2996 RMK A01 T00980096  RH  099%=      5-min Rain = 0
KSW1 221631Z 14003KT 10/10 A2996 RMK A01 T00980096  RH  099%=      5-min Rain = 0
KSW1 221632Z 15004KT 10/10 A2996 RMK A01 T00980096  RH  099%=      5-min Rain = 0
KSW1 221633Z 16004KT 10/10 A2995 RMK A01 T00980096  RH  099%=      5-min Rain = 0
KSW1 221634Z 17004KT 10/10 A2995 RMK A01 T00980096  RH  099%=      5-min Rain = 0
KSW1 221635Z 15004KT 10/10 A2995 RMK A01 T00980096  RH  099%=      5-min Rain = 0
KSW1 221636Z 17003KT 10/10 A2995 RMK A01 T00990097  RH  099%=      5-min Rain = 0
KSW1 221637Z 15004KT 10/10 A2995 RMK A01 T01000098  RH  099%=      5-min Rain = 0
KSW1 221638Z 15004KT 10/10 A2995 RMK A01 T01010099  RH  099%=      5-min Rain = 0
KSW1 221639Z 15004KT 10/10 A2995 RMK A01 T01010099  RH  099%=      5-min Rain = 0
KSW1 221640Z 16005KT 10/10 A2995 RMK A01 T01010099  RH  099%=      5-min Rain = 0
KSW1 221641Z 15005KT 10/10 A2995 RMK A01 T01010099  RH  099%=      5-min Rain = 0
KSW1 221642Z 15006KT 10/10 A2995 RMK A01 T01010098  RH  099%=      5-min Rain = 0
KSW1 221643Z 16005KT 10/10 A2995 RMK A01 T01000098  RH  098%=      5-min Rain = 0
KSW1 221644Z 16005KT 10/10 A2995 RMK A01 T01000098  RH  099%=      5-min Rain = 0
KSW1 221645Z 15005KT 10/10 A2995 RMK A01 T01010099  RH  099%=      5-min Rain = 0
KSW1 221646Z 15005KT 10/10 A2995 RMK A01 T01010099  RH  099%=      5-min Rain = 0
KSW1 221647Z 16004KT 10/10 A2995 RMK A01 T01010099  RH  099%=      5-min Rain = 0
KSW1 221648Z 16005KT 10/10 A2995 RMK A01 T01010099  RH  099%=      5-min Rain = 0
KSW1 221649Z 16005KT 10/10 A2995 RMK A01 T01020099  RH  099%=      5-min Rain = 0
KSW1 221650Z 14005KT 10/10 A2995 RMK A01 T01010099  RH  098%=      5-min Rain = 0
KSW1 221651Z 16006KT 10/10 A2995 RMK A01 T01010099  RH  098%=      5-min Rain = 0
KSW1 221652Z 17005KT 10/10 A2995 RMK A01 T01020099  RH  098%=      5-min Rain = 0
KSW1 221653Z 17004KT 10/10 A2995 RMK A01 T01020099  RH  098%=      5-min Rain = 0
KSW1 221654Z 16003KT 10/10 A2995 RMK A01 T01010099  RH  098%=      5-min Rain = 0
KSW1 221655Z 16005KT 10/10 A2995 RMK A01 T01010099  RH  098%=      5-min Rain = 0
KSW1 221656Z 16007KT 10/10 A2995 RMK A01 T01020099  RH  098%=      5-min Rain = 0
KSW1 221657Z 15007KT 10/10 A2995 RMK A01 T01020099  RH  098%=      5-min Rain = 0
KSW1 221658Z 15006KT 10/10 A2995 RMK A01 T01020099  RH  098%=      5-min Rain = 0
KSW1 221659Z 15005KT 10/10 A2995 RMK A01 T01020100  RH  098%=      5-min Rain = 0
KSW1 221700Z 14004KT 10/10 A2995 RMK A01 T01020099  RH  098%=      5-min Rain = 0
KSW1 221701Z 14005KT 10/10 A2995 RMK A01 T01030100  RH  098%=      5-min Rain = 0
KSW1 221702Z 15005KT 10/10 A2995 RMK A01 T01030100  RH  098%=      5-min Rain = 0
KSW1 221703Z 15004KT 10/10 A2995 RMK A01 T01030101  RH  098%=      5-min Rain = 0
KSW1 221704Z 15003KT 10/10 A2995 RMK A01 T01040101  RH  098%=      5-min Rain = 0
KSW1 221705Z 16005KT 10/10 A2995 RMK A01 T01040101  RH  098%=      5-min Rain = 0
KSW1 221706Z 17005KT 10/10 A2995 RMK A01 T01040100  RH  098%=      5-min Rain = 0
KSW1 221707Z 18004KT 10/10 A2995 RMK A01 T01030100  RH  098%=      5-min Rain = 0
KSW1 221708Z 15003KT 10/10 A2995 RMK A01 T01030100  RH  098%=      5-min Rain = 0
KSW1 221709Z 14003KT 11/10 A2995 RMK A01 T01050102  RH  098%=      5-min Rain = 0
KSW1 221710Z 15002KT 11/10 A2995 RMK A01 T01050102  RH  098%=      5-min Rain = 0
KSW1 221711Z 18003KT 10/10 A2995 RMK A01 T01040100  RH  098%=      5-min Rain = 0
KSW1 221712Z 18004KT 10/10 A2995 RMK A01 T01040101  RH  098%=      5-min Rain = 0
KSW1 221713Z 17003KT 10/10 A2994 RMK A01 T01040101  RH  098%=      5-min Rain = 0
KSW1 221714Z 18004KT 10/10 A2995 RMK A01 T01040100  RH  098%=      5-min Rain = 0
KSW1 221715Z 17004KT 10/10 A2995 RMK A01 T01040101  RH  098%=      5-min Rain = 0
KSW1 221716Z 18004KT 10/10 A2994 RMK A01 T01040101  RH  098%=      5-min Rain = 0
KSW1 221717Z 19004KT 11/10 A2994 RMK A01 T01050101  RH  097%=      5-min Rain = 0
KSW1 221718Z 18003KT 11/10 A2995 RMK A01 T01050101  RH  097%=      5-min Rain = 0
KSW1 221719Z 18003KT 11/10 A2994 RMK A01 T01050100  RH  097%=      5-min Rain = 0
KSW1 221720Z 17005KT 11/10 A2994 RMK A01 T01050100  RH  097%=      5-min Rain = 0
KSW1 221721Z 20004KT 11/10 A2994 RMK A01 T01060102  RH  097%=      5-min Rain = 0
KSW1 221722Z 20004KT 11/10 A2994 RMK A01 T01060102  RH  097%=      5-min Rain = 0
KSW1 221723Z 18003KT 11/10 A2994 RMK A01 T01060102  RH  097%=      5-min Rain = 0
KSW1 221724Z 17004KT 11/10 A2994 RMK A01 T01060102  RH  097%=      5-min Rain = 0
KSW1 221725Z 18005KT 11/10 A2994 RMK A01 T01070103  RH  097%=      5-min Rain = 0
KSW1 221726Z 20003KT 11/10 A2994 RMK A01 T01070102  RH  097%=      5-min Rain = 0
KSW1 221727Z 18004KT 11/10 A2994 RMK A01 T01070101  RH  096%=      5-min Rain = 0
KSW1 221728Z 21004KT 11/10 A2994 RMK A01 T01070102  RH  097%=      5-min Rain = 0
KSW1 221729Z 18005KT 11/10 A2994 RMK A01 T01080103  RH  097%=      5-min Rain = 0
KSW1 221730Z 17005KT 11/10 A2994 RMK A01 T01080102  RH  096%=      5-min Rain = 0
KSW1 221731Z 18006KT 11/10 A2994 RMK A01 T01080102  RH  096%=      5-min Rain = 0
KSW1 221732Z 19006KT 11/10 A2994 RMK A01 T01080101  RH  095%=      5-min Rain = 0
KSW1 221733Z 18005KT 11/10 A2994 RMK A01 T01080100  RH  095%=      5-min Rain = 0
KSW1 221734Z 18005KT 11/10 A2994 RMK A01 T01080101  RH  095%=      5-min Rain = 0
KSW1 221735Z 18006KT 11/10 A2994 RMK A01 T01080101  RH  095%=      5-min Rain = 0
KSW1 221736Z 16005KT 11/10 A2994 RMK A01 T01090102  RH  095%=      5-min Rain = 0
KSW1 221737Z 17004KT 11/10 A2994 RMK A01 T01090102  RH  095%=      5-min Rain = 0
KSW1 221738Z 19005KT 11/10 A2994 RMK A01 T01090102  RH  095%=      5-min Rain = 0
KSW1 221739Z 19005KT 11/10 A2994 RMK A01 T01100102  RH  095%=      5-min Rain = 0
KSW1 221740Z 20006KT 11/10 A2994 RMK A01 T01090100  RH  094%=      5-min Rain = 0
KSW1 221741Z 19005KT 11/10 A2994 RMK A01 T01090100  RH  094%=      5-min Rain = 0
KSW1 221742Z 19005KT 11/10 A2994 RMK A01 T01100102  RH  095%=      5-min Rain = 0
KSW1 221743Z 20006KT 11/10 A2994 RMK A01 T01100100  RH  093%=      5-min Rain = 0
KSW1 221744Z 19005KT 11/10 A2994 RMK A01 T01110100  RH  093%=      5-min Rain = 0
KSW1 221745Z 20004KT 11/10 A2994 RMK A01 T01110100  RH  093%=      5-min Rain = 0
KSW1 221746Z 21005KT 11/10 A2994 RMK A01 T01110102  RH  094%=      5-min Rain = 0
KSW1 221747Z 19005KT 11/10 A2994 RMK A01 T01120100  RH  093%=      5-min Rain = 0
KSW1 221748Z 18003KT 11/10 A2994 RMK A01 T01120102  RH  094%=      5-min Rain = 0
KSW1 221749Z 17003KT 11/10 A2994 RMK A01 T01120102  RH  093%=      5-min Rain = 0
KSW1 221750Z 16004KT 11/10 A2994 RMK A01 T01120101  RH  093%=      5-min Rain = 0
KSW1 221751Z 15005KT 11/10 A2994 RMK A01 T01120100  RH  093%=      5-min Rain = 0
KSW1 221752Z 16005KT 11/10 A2994 RMK A01 T01120101  RH  093%=      5-min Rain = 0
KSW1 221753Z 17004KT 11/10 A2994 RMK A01 T01120102  RH  094%=      5-min Rain = 0
KSW1 221754Z 17005KT 11/10 A2994 RMK A01 T01120101  RH  093%=      5-min Rain = 0
KSW1 221755Z 18004KT 11/10 A2994 RMK A01 T01120101  RH  093%=      5-min Rain = 0
KSW1 221756Z 18005KT 11/10 A2994 RMK A01 T01120101  RH  093%=      5-min Rain = 0
KSW1 221757Z 17004KT 11/10 A2994 RMK A01 T01120101  RH  093%=      5-min Rain = 0
KSW1 221758Z 15004KT 11/10 A2994 RMK A01 T01120101  RH  093%=      5-min Rain = 0
KSW1 221759Z 15004KT 11/10 A2994 RMK A01 T01120100  RH  092%=      5-min Rain = 0
KSW1 221800Z 16005KT 11/10 A2994 RMK A01 T01110101  RH  093%=      5-min Rain = 0
KSW1 221801Z 16005KT 11/10 A2994 RMK A01 T01120100  RH  093%=      5-min Rain = 0
KSW1 221802Z 16004KT 11/10 A2994 RMK A01 T01120099  RH  092%=      5-min Rain = 0
KSW1 221803Z 16003KT 11/10 A2993 RMK A01 T01110099  RH  092%=      5-min Rain = 0
KSW1 221804Z 15003KT 11/10 A2993 RMK A01 T01100100  RH  093%=      5-min Rain = 0
KSW1 221805Z 15004KT 11/10 A2993 RMK A01 T01110101  RH  093%=      5-min Rain = 0
KSW1 221806Z 14005KT 11/10 A2993 RMK A01 T01120101  RH  093%=      5-min Rain = 0
KSW1 221807Z 15005KT 11/10 A2993 RMK A01 T01120101  RH  093%=      5-min Rain = 0
KSW1 221808Z 15004KT 11/10 A2993 RMK A01 T01120100  RH  092%=      5-min Rain = 0
KSW1 221809Z 14004KT 11/10 A2993 RMK A01 T01120100  RH  092%=      5-min Rain = 0
KSW1 221810Z 15006KT 11/10 A2993 RMK A01 T01120100  RH  092%=      5-min Rain = 0
KSW1 221811Z 15006KT 11/10 A2993 RMK A01 T01130101  RH  092%=      5-min Rain = 0
KSW1 221812Z 15005KT 11/10 A2993 RMK A01 T01120100  RH  092%=      5-min Rain = 0
KSW1 221813Z 14006KT 11/10 A2993 RMK A01 T01130101  RH  093%=      5-min Rain = 0
KSW1 221814Z 15006KT 11/10 A2992 RMK A01 T01130101  RH  092%=      5-min Rain = 0
KSW1 221815Z 15005KT 11/10 A2992 RMK A01 T01130101  RH  092%=      5-min Rain = 0
KSW1 221816Z 14005KT 11/10 A2992 RMK A01 T01130100  RH  092%=      5-min Rain = 0
KSW1 221817Z 15006KT 11/10 A2992 RMK A01 T01140101  RH  092%=      5-min Rain = 0
KSW1 221818Z 16005KT 11/10 A2992 RMK A01 T01140100  RH  091%=      5-min Rain = 0
KSW1 221819Z 16005KT 11/10 A2992 RMK A01 T01140099  RH  091%=      5-min Rain = 0
KSW1 221820Z 15005KT 11/10 A2992 RMK A01 T01140100  RH  091%=      5-min Rain = 0
KSW1 221821Z 15005KT 11/10 A2992 RMK A01 T01140101  RH  092%=      5-min Rain = 0
KSW1 221822Z 15005KT 12/10 A2992 RMK A01 T01150101  RH  091%=      5-min Rain = 0
KSW1 221823Z 16004KT 12/10 A2992 RMK A01 T01150101  RH  091%=      5-min Rain = 0
KSW1 221824Z 14006KT 12/10 A2992 RMK A01 T01150101  RH  091%=      5-min Rain = 0
KSW1 221825Z 15007KT 12/10 A2992 RMK A01 T01160100  RH  090%=      5-min Rain = 0
KSW1 221826Z 14007KT 12/10 A2992 RMK A01 T01150100  RH  090%=      5-min Rain = 0
KSW1 221827Z 15007KT 12/10 A2992 RMK A01 T01150102  RH  091%=      5-min Rain = 0
KSW1 221828Z 16006KT 12/10 A2992 RMK A01 T01160102  RH  091%=      5-min Rain = 0
KSW1 221829Z 16008KT 12/10 A2992 RMK A01 T01170100  RH  090%=      5-min Rain = 0
KSW1 221830Z 15008KT 12/10 A2992 RMK A01 T01170099  RH  089%=      5-min Rain = 0
KSW1 221831Z 15007KT 12/10 A2992 RMK A01 T01160099  RH  089%=      5-min Rain = 0
KSW1 221832Z 15007KT 12/10 A2992 RMK A01 T01160100  RH  090%=      5-min Rain = 0
KSW1 221833Z 14008KT 12/10 A2992 RMK A01 T01180102  RH  090%=      5-min Rain = 0
KSW1 221834Z 15007KT 12/10 A2992 RMK A01 T01180100  RH  089%=      5-min Rain = 0
KSW1 221835Z 15007KT 12/10 A2992 RMK A01 T01180099  RH  088%=      5-min Rain = 0
KSW1 221836Z 14008KT 12/10 A2992 RMK A01 T01180100  RH  089%=      5-min Rain = 0
KSW1 221837Z 14007KT 12/10 A2991 RMK A01 T01180100  RH  089%=      5-min Rain = 0
KSW1 221838Z 14008KT 12/10 A2991 RMK A01 T01180100  RH  089%=      5-min Rain = 0
KSW1 221839Z 15007KT 12/10 A2991 RMK A01 T01180100  RH  089%=      5-min Rain = 0
KSW1 221840Z 16008KT 12/10 A2991 RMK A01 T01180101  RH  089%=      5-min Rain = 0
KSW1 221841Z 17007KT 12/10 A2991 RMK A01 T01180099  RH  088%=      5-min Rain = 0
KSW1 221842Z 17007KT 12/10 A2991 RMK A01 T01180100  RH  089%=      5-min Rain = 0
KSW1 221843Z 16006KT 12/10 A2991 RMK A01 T01180098  RH  088%=      5-min Rain = 0
KSW1 221844Z 16005KT 12/10 A2991 RMK A01 T01180098  RH  087%=      5-min Rain = 0
KSW1 221845Z 15007KT 12/10 A2991 RMK A01 T01180101  RH  089%=      5-min Rain = 0
KSW1 221846Z 15007KT 12/10 A2991 RMK A01 T01180100  RH  088%=      5-min Rain = 0
KSW1 221847Z 15008KT 12/10 A2991 RMK A01 T01190099  RH  088%=      5-min Rain = 0
KSW1 221848Z 14009KT 12/10 A2991 RMK A01 T01190099  RH  088%=      5-min Rain = 0
KSW1 221849Z 15009KT 12/10 A2991 RMK A01 T01190099  RH  087%=      5-min Rain = 0
KSW1 221850Z 16008KT 12/10 A2991 RMK A01 T01190099  RH  088%=      5-min Rain = 0
KSW1 221851Z 17009KT 12/10 A2991 RMK A01 T01190099  RH  088%=      5-min Rain = 0
KSW1 221852Z 14007KT 12/10 A2991 RMK A01 T01190100  RH  088%=      5-min Rain = 0
KSW1 221853Z 14008KT 12/10 A2991 RMK A01 T01190100  RH  088%=      5-min Rain = 0
KSW1 221854Z 15008KT 12/10 A2991 RMK A01 T01200099  RH  087%=      5-min Rain = 0
KSW1 221855Z 15008KT 12/10 A2991 RMK A01 T01200098  RH  086%=      5-min Rain = 0
KSW1 221856Z 15008KT 12/10 A2991 RMK A01 T01200098  RH  086%=      5-min Rain = 0
KSW1 221857Z 14007KT 12/10 A2991 RMK A01 T01200098  RH  086%=      5-min Rain = 0
KSW1 221858Z 15007KT 12/10 A2991 RMK A01 T01200099  RH  087%=      5-min Rain = 0
KSW1 221859Z 16008KT 12/10 A2991 RMK A01 T01200097  RH  086%=      5-min Rain = 0
KSW1 221900Z 15010KT 12/10 A2991 RMK A01 T01200097  RH  086%=      5-min Rain = 0
KSW1 221901Z 16008KT 12/10 A2991 RMK A01 T01200096  RH  086%=      5-min Rain = 0
KSW1 221902Z 16006KT 12/10 A2991 RMK A01 T01200097  RH  086%=      5-min Rain = 0
KSW1 221903Z 15007KT 12/10 A2991 RMK A01 T01200098  RH  086%=      5-min Rain = 0
KSW1 221904Z 15007KT 12/10 A2991 RMK A01 T01210099  RH  086%=      5-min Rain = 0
KSW1 221905Z 15009KT 12/10 A2991 RMK A01 T01220098  RH  085%=      5-min Rain = 0
KSW1 221906Z 16008KT 12/10 A2991 RMK A01 T01220097  RH  085%=      5-min Rain = 0
KSW1 221907Z 15008KT 12/10 A2991 RMK A01 T01220099  RH  086%=      5-min Rain = 0
KSW1 221908Z 15007KT 12/10 A2991 RMK A01 T01230097  RH  084%=      5-min Rain = 0
KSW1 221909Z 15009KT 12/10 A2991 RMK A01 T01230097  RH  084%=      5-min Rain = 0
KSW1 221910Z 16008KT 12/10 A2991 RMK A01 T01230097  RH  084%=      5-min Rain = 0
KSW1 221911Z 16008KT 12/10 A2991 RMK A01 T01240096  RH  083%=      5-min Rain = 0
KSW1 221912Z 16007KT 12/10 A2991 RMK A01 T01240096  RH  083%=      5-min Rain = 0
KSW1 221913Z 15007KT 12/10 A2991 RMK A01 T01240096  RH  083%=      5-min Rain = 0
KSW1 221914Z 18007KT 12/10 A2991 RMK A01 T01240095  RH  082%=      5-min Rain = 0
KSW1 221915Z 18006KT 12/09 A2991 RMK A01 T01220094  RH  083%=      5-min Rain = 0
KSW1 221916Z 16006KT 12/10 A2991 RMK A01 T01220096  RH  084%=      5-min Rain = 0
KSW1 221917Z 15005KT 12/10 A2991 RMK A01 T01230096  RH  084%=      5-min Rain = 0
KSW1 221918Z 18005KT 12/10 A2991 RMK A01 T01240096  RH  083%=      5-min Rain = 0
KSW1 221919Z 16005KT 12/10 A2991 RMK A01 T01240095  RH  083%=      5-min Rain = 0
KSW1 221920Z 16007KT 12/10 A2991 RMK A01 T01240095  RH  082%=      5-min Rain = 0
KSW1 221921Z 17006KT 12/10 A299 RMK A01 T01240095  RH  082%=      5-min Rain = 0
KSW1 221922Z 18008KT 12/09 A299 RMK A01 T01240094  RH  082%=      5-min Rain = 0
KSW1 221923Z 17006KT 13/09 A299 RMK A01 T01250091  RH  080%=      5-min Rain = 0
KSW1 221924Z 15007KT 12/09 A299 RMK A01 T01240092  RH  081%=      5-min Rain = 0
KSW1 221925Z 15009KT 12/09 A299 RMK A01 T01240094  RH  082%=      5-min Rain = 0
KSW1 221926Z 16010KT 13/09 A299 RMK A01 T01250092  RH  080%=      5-min Rain = 0
KSW1 221927Z 16009KT 13/09 A299 RMK A01 T01260092  RH  080%=      5-min Rain = 0
KSW1 221928Z 16008KT 13/09 A299 RMK A01 T01260090  RH  078%=      5-min Rain = 0
KSW1 221929Z 17006KT 13/09 A299 RMK A01 T01260092  RH  079%=      5-min Rain = 0
KSW1 221930Z 14006KT 13/09 A299 RMK A01 T01290094  RH  079%=      5-min Rain = 0
KSW1 221931Z 15007KT 13/09 A2989 RMK A01 T01300093  RH  078%=      5-min Rain = 0
KSW1 221932Z 15007KT 13/09 A2989 RMK A01 T01300093  RH  078%=      5-min Rain = 0
KSW1 221933Z 14007KT 13/09 A2989 RMK A01 T01300094  RH  078%=      5-min Rain = 0
KSW1 221934Z 16006KT 13/09 A2989 RMK A01 T01300094  RH  079%=      5-min Rain = 0
KSW1 221935Z 15009KT 13/09 A2989 RMK A01 T01330094  RH  078%=      5-min Rain = 0
KSW1 221936Z 16009KT 13/09 A2989 RMK A01 T01340091  RH  075%=      5-min Rain = 0
KSW1 221937Z 15008KT 13/09 A2989 RMK A01 T01330090  RH  075%=      5-min Rain = 0
KSW1 221938Z 16006KT 13/09 A2989 RMK A01 T01340092  RH  076%=      5-min Rain = 0
KSW1 221939Z 15007KT 14/09 A2989 RMK A01 T01350092  RH  075%=      5-min Rain = 0
KSW1 221940Z 14007KT 14/09 A2989 RMK A01 T01350093  RH  076%=      5-min Rain = 0
KSW1 221941Z 15007KT 14/09 A2989 RMK A01 T01360090  RH  074%=      5-min Rain = 0
KSW1 221942Z 14009G14KT 14/09 A2989 RMK A01 T01350091  RH  075%=      5-min Rain = 0
KSW1 221943Z 14011KT 14/09 A2989 RMK A01 T01360089  RH  073%=      5-min Rain = 0
KSW1 221944Z 14010KT 14/09 A2989 RMK A01 T01350088  RH  073%=      5-min Rain = 0
KSW1 221945Z 14009KT 13/09 A2988 RMK A01 T01340088  RH  074%=      5-min Rain = 0
KSW1 221946Z 15010KT 13/09 A2988 RMK A01 T01330088  RH  074%=      5-min Rain = 0
KSW1 221947Z 15008KT 13/09 A2988 RMK A01 T01330088  RH  074%=      5-min Rain = 0
KSW1 221948Z 16007KT 13/09 A2988 RMK A01 T01330088  RH  074%=      5-min Rain = 0
KSW1 221949Z 16007KT 13/09 A2988 RMK A01 T01330088  RH  074%=      5-min Rain = 0
KSW1 221950Z 15011KT 13/09 A2988 RMK A01 T01330090  RH  075%=      5-min Rain = 0
KSW1 221951Z 14010KT 14/09 A2988 RMK A01 T01350093  RH  075%=      5-min Rain = 0
KSW1 221952Z 14009KT 14/09 A2988 RMK A01 T01360092  RH  075%=      5-min Rain = 0
KSW1 221953Z 12007KT 14/09 A2988 RMK A01 T01350092  RH  075%=      5-min Rain = 0
KSW1 221954Z 12007KT 14/09 A2988 RMK A01 T01350092  RH  075%=      5-min Rain = 0
KSW1 221955Z 14009KT 14/09 A2988 RMK A01 T01350092  RH  075%=      5-min Rain = 0
KSW1 221956Z 17009KT 14/09 A2988 RMK A01 T01380090  RH  073%=      5-min Rain = 0
KSW1 221957Z 14009KT 14/09 A2987 RMK A01 T01400089  RH  072%=      5-min Rain = 0
KSW1 221958Z 13009KT 14/09 A2988 RMK A01 T01400089  RH  071%=      5-min Rain = 0
KSW1 221959Z 15007KT 14/09 A2987 RMK A01 T01400088  RH  071%=      5-min Rain = 0
KSW1 222000Z 15007KT 14/09 A2987 RMK A01 T01380087  RH  071%=      5-min Rain = 0
KSW1 222001Z 15008KT 14/09 A2987 RMK A01 T01370089  RH  073%=      5-min Rain = 0
KSW1 222002Z 14009KT 14/09 A2987 RMK A01 T01370088  RH  072%=      5-min Rain = 0
KSW1 222003Z 14009KT 14/09 A2987 RMK A01 T01390088  RH  071%=      5-min Rain = 0
KSW1 222004Z 15007KT 14/09 A2987 RMK A01 T01380091  RH  073%=      5-min Rain = 0
KSW1 222005Z 14010KT 14/09 A2987 RMK A01 T01390090  RH  072%=      5-min Rain = 0
KSW1 222006Z 14008KT 14/09 A2987 RMK A01 T01390089  RH  072%=      5-min Rain = 0
KSW1 222007Z 14004KT 14/09 A2987 RMK A01 T01370086  RH  071%=      5-min Rain = 0
KSW1 222008Z 13007KT 14/09 A2987 RMK A01 T01360088  RH  073%=      5-min Rain = 0
KSW1 222009Z 14006KT 14/09 A2987 RMK A01 T01360087  RH  072%=      5-min Rain = 0
KSW1 222010Z 15005KT 14/09 A2987 RMK A01 T01350088  RH  073%=      5-min Rain = 0
KSW1 222011Z 14010KT 14/09 A2987 RMK A01 T01380091  RH  073%=      5-min Rain = 0
KSW1 222012Z 13008KT 14/09 A2987 RMK A01 T01430093  RH  072%=      5-min Rain = 0
KSW1 222013Z 12008KT 15/09 A2987 RMK A01 T01460092  RH  070%=      5-min Rain = 0
KSW1 222014Z 15011KT 15/09 A2987 RMK A01 T01470093  RH  070%=      5-min Rain = 0
KSW1 222015Z 15008KT 15/09 A2987 RMK A01 T01480090  RH  068%=      5-min Rain = 0
KSW1 222016Z 14006KT 15/09 A2987 RMK A01 T01460091  RH  069%=      5-min Rain = 0
KSW1 222017Z 16008KT 15/09 A2987 RMK A01 T01450089  RH  069%=      5-min Rain = 0
KSW1 222018Z 14007KT 14/09 A2986 RMK A01 T01430090  RH  070%=      5-min Rain = 0
KSW1 222019Z 17009KT 15/09 A2986 RMK A01 T01450091  RH  070%=      5-min Rain = 0
KSW1 222020Z 16008KT 15/09 A2986 RMK A01 T01450089  RH  069%=      5-min Rain = 0
KSW1 222021Z 15010KT 14/09 A2986 RMK A01 T01440090  RH  070%=      5-min Rain = 0
KSW1 222022Z 14004KT 14/09 A2986 RMK A01 T01430091  RH  071%=      5-min Rain = 0
KSW1 222023Z 12006KT 14/09 A2986 RMK A01 T01430091  RH  071%=      5-min Rain = 0
KSW1 222024Z 12010KT 15/09 A2986 RMK A01 T01450090  RH  070%=      5-min Rain = 0
KSW1 222025Z 14010KT 14/09 A2986 RMK A01 T01440090  RH  070%=      5-min Rain = 0
KSW1 222026Z 12008KT 14/09 A2986 RMK A01 T01440091  RH  070%=      5-min Rain = 0
KSW1 222027Z 11009KT 15/09 A2986 RMK A01 T01460090  RH  069%=      5-min Rain = 0
KSW1 222028Z 12009KT 15/09 A2986 RMK A01 T01460089  RH  069%=      5-min Rain = 0
KSW1 222029Z 14011KT 15/09 A2986 RMK A01 T01450090  RH  070%=      5-min Rain = 0
KSW1 222030Z 14011KT 14/09 A2986 RMK A01 T01440090  RH  070%=      5-min Rain = 0
KSW1 222031Z 13009KT 14/09 A2986 RMK A01 T01420089  RH  070%=      5-min Rain = 0
KSW1 222032Z 14008KT 14/09 A2986 RMK A01 T01410089  RH  071%=      5-min Rain = 0
KSW1 222033Z 15009KT 14/09 A2986 RMK A01 T01400089  RH  071%=      5-min Rain = 0
KSW1 222034Z 13008KT 14/09 A2986 RMK A01 T01400089  RH  071%=      5-min Rain = 0
KSW1 222035Z 13009KT 14/09 A2986 RMK A01 T01400089  RH  071%=      5-min Rain = 0
KSW1 222036Z 12009KT 14/09 A2986 RMK A01 T01400089  RH  071%=      5-min Rain = 0
KSW1 222037Z 11007KT 14/09 A2986 RMK A01 T01400089  RH  071%=      5-min Rain = 0
KSW1 222038Z 10007KT 14/09 A2986 RMK A01 T01390089  RH  072%=      5-min Rain = 0
KSW1 222039Z 11007KT 14/09 A2985 RMK A01 T01390089  RH  072%=      5-min Rain = 0
KSW1 222040Z 12011KT 14/09 A2985 RMK A01 T01410090  RH  072%=      5-min Rain = 0
KSW1 222041Z 11010KT 14/09 A2985 RMK A01 T01420088  RH  070%=      5-min Rain = 0
KSW1 222042Z 12008KT 14/09 A2985 RMK A01 T01420088  RH  070%=      5-min Rain = 0
KSW1 222043Z 13006KT 14/09 A2985 RMK A01 T01420089  RH  070%=      5-min Rain = 0
KSW1 222044Z 14007KT 15/09 A2985 RMK A01 T01450092  RH  071%=      5-min Rain = 0
KSW1 222045Z 13006KT 15/09 A2985 RMK A01 T01480091  RH  069%=      5-min Rain = 0
KSW1 222046Z 14007KT 15/09 A2985 RMK A01 T01490094  RH  069%=      5-min Rain = 0
KSW1 222047Z 14009KT 15/10 A2985 RMK A01 T01540098  RH  069%=      5-min Rain = 0
KSW1 222048Z 13012KT 16/09 A2985 RMK A01 T01550093  RH  066%=      5-min Rain = 0
KSW1 222049Z 13009KT 15/09 A2985 RMK A01 T01510091  RH  067%=      5-min Rain = 0
KSW1 222050Z 11008KT 15/09 A2985 RMK A01 T01470092  RH  069%=      5-min Rain = 0
KSW1 222051Z 13010KT 15/09 A2985 RMK A01 T01480092  RH  069%=      5-min Rain = 0
KSW1 222052Z 12009KT 15/09 A2985 RMK A01 T01470092  RH  069%=      5-min Rain = 0
KSW1 222053Z 12009KT 15/09 A2985 RMK A01 T01460093  RH  071%=      5-min Rain = 0
KSW1 222054Z 10009KT 15/09 A2985 RMK A01 T01480093  RH  070%=      5-min Rain = 0
KSW1 222055Z 11010KT 15/09 A2985 RMK A01 T01470093  RH  070%=      5-min Rain = 0
KSW1 222056Z 13010KT 15/09 A2985 RMK A01 T01490093  RH  069%=      5-min Rain = 0
KSW1 222057Z 11009KT 15/09 A2985 RMK A01 T01490094  RH  069%=      5-min Rain = 0
KSW1 222058Z 11010KT 15/09 A2985 RMK A01 T01500093  RH  068%=      5-min Rain = 0
KSW1 222059Z 11011KT 15/09 A2985 RMK A01 T01500092  RH  068%=      5-min Rain = 0
KSW1 222100Z 12010KT 15/09 A2985 RMK A01 T01480091  RH  069%=      5-min Rain = 0
KSW1 222101Z 11011KT 15/09 A2985 RMK A01 T01470092  RH  070%=      5-min Rain = 0
KSW1 222102Z 11011KT 15/09 A2985 RMK A01 T01470091  RH  069%=      5-min Rain = 0
KSW1 222103Z 12010KT 15/09 A2985 RMK A01 T01460092  RH  070%=      5-min Rain = 0
KSW1 222104Z 11012KT 15/09 A2985 RMK A01 T01470092  RH  069%=      5-min Rain = 0
KSW1 222105Z 11009KT 15/09 A2985 RMK A01 T01450090  RH  070%=      5-min Rain = 0
KSW1 222106Z 11010KT 14/09 A2984 RMK A01 T01430091  RH  071%=      5-min Rain = 0
KSW1 222107Z 11009KT 14/09 A2984 RMK A01 T01420090  RH  071%=      5-min Rain = 0
KSW1 222108Z 11008KT 14/09 A2984 RMK A01 T01420091  RH  071%=      5-min Rain = 0
KSW1 222109Z 12010KT 14/09 A2984 RMK A01 T01420091  RH  071%=      5-min Rain = 0
KSW1 222110Z 12009KT 14/09 A2985 RMK A01 T01420091  RH  071%=      5-min Rain = 0
KSW1 222111Z 12010KT 14/09 A2985 RMK A01 T01420091  RH  071%=      5-min Rain = 0
KSW1 222112Z 11009KT 14/09 A2985 RMK A01 T01420090  RH  071%=      5-min Rain = 0
KSW1 222113Z 12009KT 14/09 A2985 RMK A01 T01420090  RH  071%=      5-min Rain = 0
KSW1 222114Z 11008KT 14/09 A2984 RMK A01 T01420090  RH  071%=      5-min Rain = 0
KSW1 222115Z 11008KT 14/09 A2984 RMK A01 T01420090  RH  071%=      5-min Rain = 0
KSW1 222116Z 11007KT 14/09 A2984 RMK A01 T01430090  RH  071%=      5-min Rain = 0
KSW1 222117Z 09006G11KT 15/09 A2984 RMK A01 T01450093  RH  071%=      5-min Rain = 0
KSW1 222118Z 10009KT 15/10 A2984 RMK A01 T01500096  RH  070%=      5-min Rain = 0
KSW1 222119Z 11009KT 16/10 A2984 RMK A01 T01570098  RH  068%=      5-min Rain = 0
KSW1 222120Z 13006KT 16/10 A2984 RMK A01 T01610097  RH  066%=      5-min Rain = 0
KSW1 222121Z 12009KT 16/10 A2984 RMK A01 T01630096  RH  064%=      5-min Rain = 0
KSW1 222122Z 13009KT 16/09 A2984 RMK A01 T01600093  RH  064%=      5-min Rain = 0
KSW1 222123Z 15008KT 16/09 A2984 RMK A01 T01560093  RH  066%=      5-min Rain = 0
KSW1 222124Z 14009KT 16/09 A2984 RMK A01 T01550092  RH  066%=      5-min Rain = 0
KSW1 222125Z 13008KT 15/09 A2984 RMK A01 T01530092  RH  067%=      5-min Rain = 0
KSW1 222126Z 13007KT 15/09 A2984 RMK A01 T01490091  RH  068%=      5-min Rain = 0
KSW1 222127Z 12009KT 15/09 A2984 RMK A01 T01470091  RH  069%=      5-min Rain = 0
KSW1 222128Z 13010KT 15/09 A2984 RMK A01 T01470091  RH  069%=      5-min Rain = 0
KSW1 222129Z 13011KT 15/09 A2984 RMK A01 T01470092  RH  069%=      5-min Rain = 0
KSW1 222130Z 14010KT 15/09 A2983 RMK A01 T01480092  RH  069%=      5-min Rain = 0
KSW1 222131Z 14010KT 15/09 A2983 RMK A01 T01490092  RH  069%=      5-min Rain = 0
KSW1 222132Z 13010KT 15/09 A2983 RMK A01 T01480091  RH  069%=      5-min Rain = 0
KSW1 222133Z 13008KT 15/09 A2983 RMK A01 T01460091  RH  070%=      5-min Rain = 0
KSW1 222134Z 13011KT 15/09 A2983 RMK A01 T01460093  RH  070%=      5-min Rain = 0
KSW1 222135Z 11007KT 15/09 A2983 RMK A01 T01470092  RH  069%=      5-min Rain = 0
KSW1 222136Z 12008KT 15/09 A2983 RMK A01 T01490094  RH  069%=      5-min Rain = 0
KSW1 222137Z 12011KT 15/09 A2983 RMK A01 T01510093  RH  068%=      5-min Rain = 0
KSW1 222138Z 14012KT 15/09 A2983 RMK A01 T01500091  RH  068%=      5-min Rain = 0
KSW1 222139Z 14013KT 15/09 A2983 RMK A01 T01460090  RH  069%=      5-min Rain = 0
KSW1 222140Z 13011KT 14/09 A2983 RMK A01 T01430090  RH  070%=      5-min Rain = 0
KSW1 222141Z 14008KT 14/09 A2984 RMK A01 T01440091  RH  071%=      5-min Rain = 0
KSW1 222142Z 14007KT 15/09 A2984 RMK A01 T01460091  RH  070%=      5-min Rain = 0
KSW1 222143Z 14009KT 15/09 A2983 RMK A01 T01460092  RH  070%=      5-min Rain = 0
KSW1 222144Z 12009KT 15/09 A2984 RMK A01 T01480092  RH  069%=      5-min Rain = 0
KSW1 222145Z 12008KT 15/09 A2984 RMK A01 T01490091  RH  068%=      5-min Rain = 0
KSW1 222146Z 12008KT 15/09 A2983 RMK A01 T01480091  RH  069%=      5-min Rain = 0
KSW1 222147Z 12009KT 15/09 A2983 RMK A01 T01470091  RH  069%=      5-min Rain = 0
KSW1 222148Z 13008KT 15/09 A2983 RMK A01 T01490091  RH  068%=      5-min Rain = 0
KSW1 222149Z 14008KT 15/09 A2983 RMK A01 T01480092  RH  069%=      5-min Rain = 0
KSW1 222150Z 14009KT 15/09 A2983 RMK A01 T01490092  RH  069%=      5-min Rain = 0
KSW1 222151Z 13007KT 15/09 A2983 RMK A01 T01490091  RH  068%=      5-min Rain = 0
KSW1 222152Z 12007KT 15/09 A2983 RMK A01 T01490093  RH  069%=      5-min Rain = 0
KSW1 222153Z 14009KT 15/09 A2983 RMK A01 T01520094  RH  068%=      5-min Rain = 0
KSW1 222154Z 14011KT 15/09 A2983 RMK A01 T01530092  RH  067%=      5-min Rain = 0
KSW1 222155Z 14012KT 15/09 A2983 RMK A01 T01530092  RH  067%=      5-min Rain = 0
KSW1 222156Z 14011KT 15/09 A2983 RMK A01 T01520091  RH  067%=      5-min Rain = 0
KSW1 222157Z 14011KT 15/09 A2983 RMK A01 T01510091  RH  067%=      5-min Rain = 0
KSW1 222158Z 14009KT 15/09 A2983 RMK A01 T01500091  RH  068%=      5-min Rain = 0
KSW1 222159Z 15010KT 15/09 A2983 RMK A01 T01510092  RH  068%=      5-min Rain = 0
KSW1 222200Z 14007KT 15/09 A2983 RMK A01 T01510091  RH  067%=      5-min Rain = 0
KSW1 222201Z 13010KT 15/09 A2983 RMK A01 T01530093  RH  067%=      5-min Rain = 0
KSW1 222202Z 13012KT 15/09 A2983 RMK A01 T01540091  RH  066%=      5-min Rain = 0
KSW1 222203Z 12010KT 15/09 A2983 RMK A01 T01540091  RH  066%=      5-min Rain = 0
KSW1 222204Z 12010KT 16/09 A2983 RMK A01 T01550091  RH  066%=      5-min Rain = 0
KSW1 222205Z 14009KT 15/09 A2983 RMK A01 T01540091  RH  066%=      5-min Rain = 0
KSW1 222206Z 15010KT 16/09 A2983 RMK A01 T01550092  RH  066%=      5-min Rain = 0
KSW1 222207Z 15008KT 16/09 A2983 RMK A01 T01560091  RH  065%=      5-min Rain = 0
KSW1 222208Z 13007KT 16/09 A2983 RMK A01 T01560093  RH  066%=      5-min Rain = 0
KSW1 222209Z 11007KT 16/09 A2983 RMK A01 T01580093  RH  065%=      5-min Rain = 0
KSW1 222210Z 12007KT 16/09 A2983 RMK A01 T01590094  RH  065%=      5-min Rain = 0
KSW1 222211Z 13010KT 16/09 A2983 RMK A01 T01600093  RH  064%=      5-min Rain = 0
KSW1 222212Z 14008KT 16/09 A2983 RMK A01 T01580092  RH  064%=      5-min Rain = 0
KSW1 222213Z 14008KT 16/09 A2983 RMK A01 T01580093  RH  065%=      5-min Rain = 0
KSW1 222214Z 13009KT 16/09 A2983 RMK A01 T01580093  RH  065%=      5-min Rain = 0
KSW1 222215Z 13010KT 16/09 A2983 RMK A01 T01600094  RH  065%=      5-min Rain = 0
KSW1 222216Z 14008KT 16/09 A2983 RMK A01 T01590092  RH  065%=      5-min Rain = 0
KSW1 222217Z 12010KT 16/09 A2983 RMK A01 T01580093  RH  065%=      5-min Rain = 0
KSW1 222218Z 11010KT 16/09 A2983 RMK A01 T01570093  RH  065%=      5-min Rain = 0
KSW1 222219Z 10011KT 16/09 A2983 RMK A01 T01560091  RH  065%=      5-min Rain = 0
KSW1 222220Z 10012KT 15/09 A2983 RMK A01 T01540092  RH  066%=      5-min Rain = 0
KSW1 222221Z 13011KT 15/09 A2983 RMK A01 T01540093  RH  067%=      5-min Rain = 0
KSW1 222222Z 12010KT 16/09 A2983 RMK A01 T01550092  RH  066%=      5-min Rain = 0
KSW1 222223Z 13008KT 15/09 A2983 RMK A01 T01530092  RH  067%=      5-min Rain = 0
KSW1 222224Z 12008KT 15/09 A2983 RMK A01 T01530092  RH  067%=      5-min Rain = 0
KSW1 222225Z 11010KT 15/09 A2983 RMK A01 T01540091  RH  066%=      5-min Rain = 0
KSW1 222226Z 11008KT 15/09 A2983 RMK A01 T01530091  RH  066%=      5-min Rain = 0
KSW1 222227Z 10008KT 15/09 A2982 RMK A01 T01530092  RH  067%=      5-min Rain = 0
KSW1 222228Z 12011KT 15/09 A2982 RMK A01 T01540092  RH  066%=      5-min Rain = 0
KSW1 222229Z 12012KT 16/09 A2982 RMK A01 T01550091  RH  066%=      5-min Rain = 0
KSW1 222230Z 13010KT 15/09 A2982 RMK A01 T01540091  RH  066%=      5-min Rain = 0
KSW1 222231Z 13010KT 15/09 A2982 RMK A01 T01540092  RH  067%=      5-min Rain = 0
KSW1 222232Z 11010KT 15/09 A2982 RMK A01 T01540092  RH  066%=      5-min Rain = 0
KSW1 222233Z 12009KT 15/09 A2982 RMK A01 T01540092  RH  067%=      5-min Rain = 0
KSW1 222234Z 13012KT 15/09 A2982 RMK A01 T01540092  RH  067%=      5-min Rain = 0
KSW1 222235Z 12012KT 15/09 A2982 RMK A01 T01540092  RH  067%=      5-min Rain = 0
KSW1 222236Z 12011KT 15/09 A2982 RMK A01 T01540092  RH  067%=      5-min Rain = 0
KSW1 222237Z 12008KT 15/09 A2982 RMK A01 T01530092  RH  067%=      5-min Rain = 0
KSW1 222238Z 11008KT 15/09 A2982 RMK A01 T01530092  RH  067%=      5-min Rain = 0
KSW1 222239Z 10009KT 15/09 A2982 RMK A01 T01520092  RH  067%=      5-min Rain = 0
KSW1 222240Z 11009KT 15/09 A2982 RMK A01 T01520092  RH  067%=      5-min Rain = 0
KSW1 222241Z 13009KT 15/09 A2982 RMK A01 T01520092  RH  067%=      5-min Rain = 0
KSW1 222242Z 14009KT 15/09 A2982 RMK A01 T01540094  RH  067%=      5-min Rain = 0
KSW1 222243Z 13011KT 16/09 A2982 RMK A01 T01550093  RH  067%=      5-min Rain = 0
KSW1 222244Z 13009KT 15/09 A2982 RMK A01 T01530092  RH  067%=      5-min Rain = 0
KSW1 222245Z 13010KT 15/09 A2982 RMK A01 T01530093  RH  067%=      5-min Rain = 0
KSW1 222246Z 13010KT 15/09 A2982 RMK A01 T01530093  RH  067%=      5-min Rain = 0
KSW1 222247Z 14009KT 15/09 A2982 RMK A01 T01540093  RH  067%=      5-min Rain = 0
KSW1 222248Z 14010KT 15/09 A2982 RMK A01 T01540093  RH  067%=      5-min Rain = 0
KSW1 222249Z 14009KT 15/09 A2982 RMK A01 T01530092  RH  067%=      5-min Rain = 0
KSW1 222250Z 13007KT 15/09 A2982 RMK A01 T01530092  RH  067%=      5-min Rain = 0
KSW1 222251Z 13008KT 15/09 A2982 RMK A01 T01530092  RH  067%=      5-min Rain = 0
KSW1 222252Z 13010KT 15/09 A2982 RMK A01 T01530092  RH  067%=      5-min Rain = 0
KSW1 222253Z 14010KT 15/09 A2982 RMK A01 T01530093  RH  067%=      5-min Rain = 0
KSW1 222254Z 14009KT 15/09 A2981 RMK A01 T01520093  RH  067%=      5-min Rain = 0
KSW1 222255Z 12009KT 15/09 A2981 RMK A01 T01520093  RH  068%=      5-min Rain = 0
KSW1 222256Z 13010KT 15/09 A2981 RMK A01 T01520093  RH  068%=      5-min Rain = 0
KSW1 222257Z 14011KT 15/09 A2981 RMK A01 T01530093  RH  067%=      5-min Rain = 0
KSW1 222258Z 14010KT 15/09 A2981 RMK A01 T01540094  RH  067%=      5-min Rain = 0
KSW1 222259Z 14012KT 16/09 A2981 RMK A01 T01550094  RH  067%=      5-min Rain = 0
KSW1 222300Z 14011KT 15/09 A2981 RMK A01 T01540093  RH  067%=      5-min Rain = 0
KSW1 222301Z 13010KT 15/09 A2981 RMK A01 T01530093  RH  067%=      5-min Rain = 0
KSW1 222302Z 13009KT 15/09 A2981 RMK A01 T01520094  RH  068%=      5-min Rain = 0
KSW1 222303Z 12009KT 15/09 A2981 RMK A01 T01530094  RH  068%=      5-min Rain = 0
KSW1 222304Z 11011KT 15/09 A2981 RMK A01 T01530094  RH  068%=      5-min Rain = 0
KSW1 222305Z 11011KT 15/10 A2981 RMK A01 T01520095  RH  068%=      5-min Rain = 0
KSW1 222306Z 13011KT 15/10 A2981 RMK A01 T01520095  RH  068%=      5-min Rain = 0
KSW1 222307Z 13011KT 15/10 A2981 RMK A01 T01510095  RH  069%=      5-min Rain = 0
KSW1 222308Z 13010KT 15/10 A2981 RMK A01 T01510095  RH  070%=      5-min Rain = 0
KSW1 222309Z 13010KT 15/10 A2981 RMK A01 T01510095  RH  069%=      5-min Rain = 0
KSW1 222310Z 13010KT 15/10 A2981 RMK A01 T01510095  RH  069%=      5-min Rain = 0
KSW1 222311Z 12010KT 15/10 A2981 RMK A01 T01510095  RH  069%=      5-min Rain = 0
KSW1 222312Z 12010KT 15/09 A2981 RMK A01 T01520094  RH  068%=      5-min Rain = 0
KSW1 222313Z 12011KT 15/09 A2981 RMK A01 T01520094  RH  068%=      5-min Rain = 0
KSW1 222314Z 12012KT 15/09 A2981 RMK A01 T01510093  RH  068%=      5-min Rain = 0
KSW1 222315Z 12011KT 15/09 A2981 RMK A01 T01500092  RH  069%=      5-min Rain = 0
KSW1 222316Z 12011KT 15/09 A2981 RMK A01 T01490093  RH  069%=      5-min Rain = 0
KSW1 222317Z 12010KT 15/09 A2981 RMK A01 T01490092  RH  069%=      5-min Rain = 0
KSW1 222318Z 13008KT 15/09 A2981 RMK A01 T01490093  RH  069%=      5-min Rain = 0
KSW1 222319Z 13012KT 15/09 A2981 RMK A01 T01500093  RH  069%=      5-min Rain = 0
KSW1 222320Z 13010KT 15/09 A2981 RMK A01 T01490093  RH  069%=      5-min Rain = 0
KSW1 222321Z 12011KT 15/09 A298 RMK A01 T01480093  RH  069%=      5-min Rain = 0
KSW1 222322Z 12012KT 15/09 A298 RMK A01 T01480092  RH  069%=      5-min Rain = 0
KSW1 222323Z 12010KT 15/09 A298 RMK A01 T01480092  RH  069%=      5-min Rain = 0
KSW1 222324Z 13011KT 15/09 A298 RMK A01 T01480092  RH  069%=      5-min Rain = 0
KSW1 222325Z 12011KT 15/09 A298 RMK A01 T01490092  RH  069%=      5-min Rain = 0
KSW1 222326Z 13010KT 15/09 A298 RMK A01 T01490092  RH  069%=      5-min Rain = 0
KSW1 222327Z 12009KT 15/09 A298 RMK A01 T01480092  RH  069%=      5-min Rain = 0
KSW1 222328Z 11010KT 15/09 A298 RMK A01 T01480092  RH  069%=      5-min Rain = 0
KSW1 222329Z 12012KT 15/09 A298 RMK A01 T01480091  RH  069%=      5-min Rain = 0
KSW1 222330Z 12011KT 15/09 A298 RMK A01 T01480091  RH  069%=      5-min Rain = 0
KSW1 222331Z 12011KT 15/09 A298 RMK A01 T01480091  RH  069%=      5-min Rain = 0
KSW1 222332Z 11010KT 15/09 A298 RMK A01 T01470091  RH  069%=      5-min Rain = 0
KSW1 222333Z 12009KT 15/09 A298 RMK A01 T01480091  RH  069%=      5-min Rain = 0
KSW1 222334Z 11009KT 15/09 A298 RMK A01 T01480091  RH  069%=      5-min Rain = 0
KSW1 222335Z 11010KT 15/09 A298 RMK A01 T01480092  RH  069%=      5-min Rain = 0
KSW1 222336Z 11011KT 15/09 A298 RMK A01 T01480092  RH  069%=      5-min Rain = 0
KSW1 222337Z 11010KT 15/09 A298 RMK A01 T01480092  RH  069%=      5-min Rain = 0
KSW1 222338Z 11009KT 15/09 A298 RMK A01 T01470092  RH  070%=      5-min Rain = 0
KSW1 222339Z 11009KT 15/09 A298 RMK A01 T01460092  RH  070%=      5-min Rain = 0
KSW1 222340Z 12011KT 15/09 A298 RMK A01 T01460092  RH  070%=      5-min Rain = 0
KSW1 222341Z 12010KT 15/09 A298 RMK A01 T01460091  RH  070%=      5-min Rain = 0
KSW1 222342Z 12008KT 15/09 A298 RMK A01 T01450091  RH  070%=      5-min Rain = 0
KSW1 222343Z 12009KT 15/09 A298 RMK A01 T01450091  RH  070%=      5-min Rain = 0
KSW1 222344Z 12009KT 15/09 A298 RMK A01 T01450091  RH  070%=      5-min Rain = 0
KSW1 222345Z 11008KT 15/09 A298 RMK A01 T01450091  RH  070%=      5-min Rain = 0
KSW1 222346Z 11011KT 15/09 A298 RMK A01 T01450091  RH  070%=      5-min Rain = 0
KSW1 222347Z 11011KT 15/09 A298 RMK A01 T01450091  RH  070%=      5-min Rain = 0
KSW1 222348Z 11010KT 14/09 A298 RMK A01 T01440091  RH  070%=      5-min Rain = 0
KSW1 222349Z 12010KT 14/09 A298 RMK A01 T01440091  RH  071%=      5-min Rain = 0
KSW1 222350Z 10009KT 14/09 A298 RMK A01 T01430091  RH  071%=      5-min Rain = 0
KSW1 222351Z 10009KT 14/09 A298 RMK A01 T01430090  RH  071%=      5-min Rain = 0
KSW1 222352Z 10009KT 14/09 A298 RMK A01 T01420090  RH  071%=      5-min Rain = 0
KSW1 222353Z 11007KT 14/09 A298 RMK A01 T01420090  RH  071%=      5-min Rain = 0
KSW1 222354Z 12010KT 14/09 A298 RMK A01 T01420090  RH  071%=      5-min Rain = 0
KSW1 222355Z 10011KT 14/09 A298 RMK A01 T01420092  RH  072%=      5-min Rain = 0
KSW1 222356Z 10010KT 14/09 A298 RMK A01 T01420093  RH  072%=      5-min Rain = 0
KSW1 222357Z 09011KT 14/09 A298 RMK A01 T01410093  RH  073%=      5-min Rain = 0
KSW1 222358Z 08009KT 14/09 A298 RMK A01 T01400093  RH  073%=      5-min Rain = 0
KSW1 222359Z 09009KT 14/09 A298 RMK A01 T01400094  RH  074%=      5-min Rain = 0
KSW1 230000Z 09010KT 14/09 A298 RMK A01 T01390093  RH  074%=      5-min Rain = 0
KSW1 230001Z 10009KT 14/09 A298 RMK A01 T01390093  RH  074%=      5-min Rain = 0
KSW1 230002Z 11012KT 14/09 A298 RMK A01 T01380093  RH  074%=      5-min Rain = 0
KSW1 230003Z 12012KT 14/09 A298 RMK A01 T01380092  RH  074%=      5-min Rain = 0
KSW1 230004Z 11009KT 14/09 A298 RMK A01 T01370092  RH  074%=      5-min Rain = 0
KSW1 230005Z 13011KT 14/09 A298 RMK A01 T01360091  RH  074%=      5-min Rain = 0
KSW1 230006Z 12009KT 14/09 A298 RMK A01 T01360091  RH  074%=      5-min Rain = 0
KSW1 230007Z 12011KT 14/09 A298 RMK A01 T01360091  RH  074%=      5-min Rain = 0
KSW1 230008Z 12011KT 14/09 A298 RMK A01 T01350090  RH  074%=      5-min Rain = 0
KSW1 230009Z 12009KT 14/09 A298 RMK A01 T01350090  RH  074%=      5-min Rain = 0
KSW1 230010Z 12010KT 13/09 A298 RMK A01 T01340090  RH  075%=      5-min Rain = 0
KSW1 230011Z 12009KT 13/09 A298 RMK A01 T01340090  RH  075%=      5-min Rain = 0
KSW1 230012Z 13009KT 13/09 A298 RMK A01 T01330090  RH  075%=      5-min Rain = 0
KSW1 230013Z 13010KT 13/09 A298 RMK A01 T01330090  RH  075%=      5-min Rain = 0
KSW1 230014Z 13008KT 13/09 A298 RMK A01 T01330090  RH  075%=      5-min Rain = 0
KSW1 230015Z 13009KT 13/09 A2981 RMK A01 T01320090  RH  076%=      5-min Rain = 0
KSW1 230016Z 13009KT 13/09 A2981 RMK A01 T01310090  RH  076%=      5-min Rain = 0
KSW1 230017Z 13010KT 13/09 A2981 RMK A01 T01310091  RH  077%=      5-min Rain = 0
KSW1 230018Z 13010KT 13/09 A2981 RMK A01 T01310092  RH  077%=      5-min Rain = 0
KSW1 230019Z 12011KT 13/09 A2981 RMK A01 T01300092  RH  078%=      5-min Rain = 0
KSW1 230020Z 12009KT 13/09 A2981 RMK A01 T01300093  RH  078%=      5-min Rain = 0
KSW1 230021Z 12009KT 13/09 A2981 RMK A01 T01290092  RH  078%=      5-min Rain = 0
KSW1 230022Z 12009KT 13/09 A2981 RMK A01 T01280092  RH  079%=      5-min Rain = 0
KSW1 230023Z 12009KT 13/09 A2981 RMK A01 T01270092  RH  079%=      5-min Rain = 0
KSW1 230024Z 12008KT 13/09 A2981 RMK A01 T01270092  RH  080%=      5-min Rain = 0
KSW1 230025Z 12009KT 13/09 A2981 RMK A01 T01260093  RH  080%=      5-min Rain = 0
KSW1 230026Z 12008KT 13/09 A2981 RMK A01 T01260093  RH  080%=      5-min Rain = 0
KSW1 230027Z 12009KT 13/09 A2981 RMK A01 T01250094  RH  081%=      5-min Rain = 0
KSW1 230028Z 12008KT 12/09 A2981 RMK A01 T01240093  RH  081%=      5-min Rain = 0
KSW1 230029Z 12010KT 12/09 A2981 RMK A01 T01230093  RH  081%=      5-min Rain = 0
KSW1 230030Z 12010KT 12/09 A2981 RMK A01 T01230093  RH  082%=      5-min Rain = 0
KSW1 230031Z 12010KT 12/09 A2981 RMK A01 T01230093  RH  082%=      5-min Rain = 0
KSW1 230032Z 12011KT 12/09 A2981 RMK A01 T01220093  RH  082%=      5-min Rain = 0
KSW1 230033Z 12010KT 12/09 A2981 RMK A01 T01220093  RH  083%=      5-min Rain = 0
KSW1 230034Z 12008KT 12/09 A2981 RMK A01 T01210092  RH  083%=      5-min Rain = 0
KSW1 230035Z 11010KT 12/09 A2981 RMK A01 T01200092  RH  083%=      5-min Rain = 0
KSW1 230036Z 12010KT 12/09 A2981 RMK A01 T01200093  RH  084%=      5-min Rain = 0
KSW1 230037Z 12011KT 12/09 A2981 RMK A01 T01200093  RH  084%=      5-min Rain = 0
KSW1 230038Z 12011KT 12/09 A2981 RMK A01 T01190093  RH  084%=      5-min Rain = 0
KSW1 230039Z 12010KT 12/09 A2981 RMK A01 T01190093  RH  084%=      5-min Rain = 0
KSW1 230040Z 12011KT 12/09 A2981 RMK A01 T01190093  RH  084%=      5-min Rain = 0
KSW1 230041Z 12010KT 12/09 A2981 RMK A01 T01180093  RH  084%=      5-min Rain = 0
KSW1 230042Z 12010KT 12/09 A298 RMK A01 T01170093  RH  085%=      5-min Rain = 0
KSW1 230043Z 12011KT 12/09 A298 RMK A01 T01170093  RH  085%=      5-min Rain = 0
KSW1 230044Z 12010KT 12/09 A298 RMK A01 T01170093  RH  085%=      5-min Rain = 0
KSW1 230045Z 11009KT 12/09 A298 RMK A01 T01170092  RH  085%=      5-min Rain = 0
KSW1 230046Z 11010KT 12/09 A298 RMK A01 T01160092  RH  085%=      5-min Rain = 0
KSW1 230047Z 12009KT 12/09 A298 RMK A01 T01160092  RH  085%=      5-min Rain = 0
KSW1 230048Z 11009KT 12/09 A298 RMK A01 T01160092  RH  085%=      5-min Rain = 0
KSW1 230049Z 12010KT 12/09 A298 RMK A01 T01150092  RH  086%=      5-min Rain = 0
KSW1 230050Z 11011KT 11/09 A298 RMK A01 T01140092  RH  086%=      5-min Rain = 0
KSW1 230051Z 11010KT 11/09 A298 RMK A01 T01140092  RH  086%=      5-min Rain = 0
KSW1 230052Z 11010KT 11/09 A2981 RMK A01 T01140091  RH  086%=      5-min Rain = 0
KSW1 230053Z 11010KT 11/09 A2981 RMK A01 T01130091  RH  086%=      5-min Rain = 0
KSW1 230054Z 11010KT 11/09 A2981 RMK A01 T01130091  RH  086%=      5-min Rain = 0
KSW1 230055Z 12010KT 11/09 A2981 RMK A01 T01120091  RH  087%=      5-min Rain = 0
KSW1 230056Z 11010KT 11/09 A298 RMK A01 T01120092  RH  087%=      5-min Rain = 0
KSW1 230057Z 11010KT 11/09 A2981 RMK A01 T01130091  RH  087%=      5-min Rain = 0
KSW1 230058Z 11010KT 11/09 A2981 RMK A01 T01120090  RH  087%=      5-min Rain = 0
KSW1 230059Z 11009KT 11/09 A2981 RMK A01 T01110090  RH  087%=      5-min Rain = 0
KSW1 230100Z 11009KT 11/09 A2981 RMK A01 T01100090  RH  087%=      5-min Rain = 0
KSW1 230101Z 11009KT 11/09 A2981 RMK A01 T01100089  RH  087%=      5-min Rain = 0
KSW1 230102Z 11010KT 11/09 A2981 RMK A01 T01090090  RH  088%=      5-min Rain = 0
KSW1 230103Z 11010KT 11/09 A2981 RMK A01 T01090089  RH  088%=      5-min Rain = 0
KSW1 230104Z 10010KT 11/09 A2981 RMK A01 T01090090  RH  088%=      5-min Rain = 0
KSW1 230105Z 10009KT 11/09 A2981 RMK A01 T01080089  RH  088%=      5-min Rain = 0
KSW1 230106Z 10010KT 11/09 A2981 RMK A01 T01070088  RH  088%=      5-min Rain = 0
KSW1 230107Z 10010KT 11/09 A2981 RMK A01 T01070088  RH  088%=      5-min Rain = 0
KSW1 230108Z 10011KT 11/09 A2981 RMK A01 T01060088  RH  089%=      5-min Rain = 0
KSW1 230109Z 10010KT 11/09 A2981 RMK A01 T01060088  RH  089%=      5-min Rain = 0
KSW1 230110Z 10010KT 11/09 A298 RMK A01 T01060089  RH  089%=      5-min Rain = 0
KSW1 230111Z 10010KT 11/09 A298 RMK A01 T01050089  RH  089%=      5-min Rain = 0
KSW1 230112Z 10010KT 11/09 A298 RMK A01 T01050088  RH  089%=      5-min Rain = 0
KSW1 230113Z 10010KT 11/09 A298 RMK A01 T01050089  RH  090%=      5-min Rain = 0
KSW1 230114Z 10010KT 11/09 A298 RMK A01 T01050089  RH  090%=      5-min Rain = 0
KSW1 230115Z 10011KT 11/09 A298 RMK A01 T01050089  RH  089%=      5-min Rain = 0
KSW1 230116Z 10011KT 11/09 A298 RMK A01 T01060089  RH  089%=      5-min Rain = 0
KSW1 230117Z 10011KT 11/09 A298 RMK A01 T01060089  RH  090%=      5-min Rain = 0
KSW1 230118Z 10010KT 11/09 A298 RMK A01 T01050089  RH  090%=      5-min Rain = 0
KSW1 230119Z 10010KT 11/09 A298 RMK A01 T01050089  RH  090%=      5-min Rain = 0
KSW1 230120Z 11011KT 11/09 A298 RMK A01 T01050089  RH  090%=      5-min Rain = 0
KSW1 230121Z 10010KT 11/09 A298 RMK A01 T01050089  RH  090%=      5-min Rain = 0
KSW1 230122Z 10011KT 10/09 A298 RMK A01 T01040088  RH  090%=      5-min Rain = 0
KSW1 230123Z 10011KT 10/09 A298 RMK A01 T01040089  RH  090%=      5-min Rain = 0
KSW1 230124Z 10010KT 10/09 A298 RMK A01 T01040089  RH  090%=      5-min Rain = 0
KSW1 230125Z 10011KT 10/09 A298 RMK A01 T01040089  RH  091%=      5-min Rain = 0
KSW1 230126Z 10010KT 10/09 A298 RMK A01 T01040089  RH  091%=      5-min Rain = 0
KSW1 230127Z 11010KT 10/09 A298 RMK A01 T01040089  RH  090%=      5-min Rain = 0
KSW1 230128Z 11010KT 10/09 A298 RMK A01 T01040089  RH  091%=      5-min Rain = 0
KSW1 230129Z 11010KT 10/09 A298 RMK A01 T01040090  RH  091%=      5-min Rain = 0
KSW1 230130Z 11009KT 10/09 A298 RMK A01 T01040090  RH  091%=      5-min Rain = 0
KSW1 230131Z 11011KT 10/09 A298 RMK A01 T01040090  RH  091%=      5-min Rain = 0
KSW1 230132Z 11010KT 10/09 A298 RMK A01 T01040091  RH  092%=      5-min Rain = 0
KSW1 230133Z 11012KT 10/09 A298 RMK A01 T01040090  RH  091%=      5-min Rain = 0
KSW1 230134Z 11012KT 10/09 A298 RMK A01 T01040091  RH  091%=      5-min Rain = 0
KSW1 230135Z 11012KT 11/09 A298 RMK A01 T01050091  RH  091%=      5-min Rain = 0
KSW1 230136Z 11010KT 11/09 A298 RMK A01 T01050091  RH  091%=      5-min Rain = 0
KSW1 230137Z 10010KT 10/09 A298 RMK A01 T01040090  RH  091%=      5-min Rain = 0
KSW1 230138Z 10010KT 10/09 A298 RMK A01 T01030089  RH  091%=      5-min Rain = 0
KSW1 230139Z 10010KT 10/09 A298 RMK A01 T01020087  RH  091%=      5-min Rain = 0
KSW1 230140Z 10011KT 10/09 A2979 RMK A01 T01000086  RH  091%=      5-min Rain = 0
KSW1 230141Z 10011KT 10/09 A2979 RMK A01 T01000087  RH  092%=      5-min Rain = 0
KSW1 230142Z 10011KT 10/09 A2979 RMK A01 T01000087  RH  092%=      5-min Rain = 0
KSW1 230143Z 10011KT 10/09 A2979 RMK A01 T01000087  RH  092%=      5-min Rain = 0
KSW1 230144Z 10011KT 10/09 A2979 RMK A01 T01000088  RH  092%=      5-min Rain = 0
KSW1 230145Z 10011KT 10/09 A2979 RMK A01 T00990087  RH  092%=      5-min Rain = 0
KSW1 230146Z 10012KT 10/09 A2979 RMK A01 T00990087  RH  093%=      5-min Rain = 0
KSW1 230147Z 10011KT 10/09 A2979 RMK A01 T00990088  RH  093%=      5-min Rain = 0
KSW1 230148Z 10010KT 10/09 A2979 RMK A01 T00990089  RH  093%=      5-min Rain = 0
KSW1 230149Z 10012KT 10/09 A2979 RMK A01 T01000089  RH  093%=      5-min Rain = 0
KSW1 230150Z 10010KT 10/09 A2979 RMK A01 T01000089  RH  093%=      5-min Rain = 0
KSW1 230151Z 10011KT 10/09 A2979 RMK A01 T01010089  RH  093%=      5-min Rain = 0
KSW1 230152Z 10011KT 10/09 A2979 RMK A01 T01000089  RH  093%=      5-min Rain = 0
KSW1 230153Z 10010KT 10/09 A298 RMK A01 T01000089  RH  093%=      5-min Rain = 0
KSW1 230154Z 10009KT 10/09 A298 RMK A01 T01000089  RH  093%=      5-min Rain = 0
KSW1 230155Z 10009KT 10/09 A298 RMK A01 T01000089  RH  093%=      5-min Rain = 0
KSW1 230156Z 11010KT 10/09 A298 RMK A01 T00990088  RH  093%=      5-min Rain = 0
KSW1 230157Z 10009KT 10/09 A298 RMK A01 T00990088  RH  093%=      5-min Rain = 0
KSW1 230158Z 10010KT 10/09 A298 RMK A01 T00990087  RH  093%=      5-min Rain = 0
KSW1 230159Z 10010KT 10/09 A298 RMK A01 T00980087  RH  093%=      5-min Rain = 0
KSW1 230200Z 10009KT 10/09 A298 RMK A01 T00980088  RH  093%=      5-min Rain = 0
KSW1 230201Z 10009KT 10/09 A298 RMK A01 T00980088  RH  094%=      5-min Rain = 0
KSW1 230202Z 10009KT 10/09 A298 RMK A01 T00980088  RH  093%=      5-min Rain = 0
KSW1 230203Z 10010KT 10/09 A298 RMK A01 T00970087  RH  093%=      5-min Rain = 0
KSW1 230204Z 10010KT 10/09 A298 RMK A01 T00970088  RH  094%=      5-min Rain = 0
KSW1 230205Z 10010KT 10/09 A298 RMK A01 T00970088  RH  094%=      5-min Rain = 0
KSW1 230206Z 10009KT 10/09 A298 RMK A01 T00970088  RH  094%=      5-min Rain = 0
KSW1 230207Z 10008KT 10/09 A298 RMK A01 T00970088  RH  094%=      5-min Rain = 0
KSW1 230208Z 09008KT 10/09 A298 RMK A01 T00970087  RH  094%=      5-min Rain = 0
KSW1 230209Z 09009KT 10/09 A298 RMK A01 T00960087  RH  094%=      5-min Rain = 0
KSW1 230210Z 09008KT 10/09 A298 RMK A01 T00960087  RH  094%=      5-min Rain = 0
KSW1 230211Z 09009KT 10/09 A298 RMK A01 T00960086  RH  094%=      5-min Rain = 0
KSW1 230212Z 09010KT 10/09 A298 RMK A01 T00950085  RH  094%=      5-min Rain = 0
KSW1 230213Z 09011KT 09/08 A2979 RMK A01 T00940084  RH  094%=      5-min Rain = 0
KSW1 230214Z 08010KT 09/09 A2979 RMK A01 T00940085  RH  094%=      5-min Rain = 0
KSW1 230215Z 08009KT 09/08 A2979 RMK A01 T00930084  RH  094%=      5-min Rain = 0
KSW1 230216Z 09010KT 09/08 A298 RMK A01 T00930084  RH  094%=      5-min Rain = 0
KSW1 230217Z 09009KT 09/08 A298 RMK A01 T00920084  RH  094%=      5-min Rain = 0
KSW1 230218Z 09009KT 09/08 A298 RMK A01 T00920084  RH  094%=      5-min Rain = 0
KSW1 230219Z 08010KT 09/08 A2979 RMK A01 T00920083  RH  095%=      5-min Rain = 0
KSW1 230220Z 08009KT 09/08 A2979 RMK A01 T00920083  RH  095%=      5-min Rain = 0
KSW1 230221Z 09009KT 09/08 A2979 RMK A01 T00910083  RH  095%=      5-min Rain = 0
KSW1 230222Z 09009KT 09/08 A2979 RMK A01 T00910083  RH  095%=      5-min Rain = 0
KSW1 230223Z 09010KT 09/08 A2979 RMK A01 T00910083  RH  095%=      5-min Rain = 0
KSW1 230224Z 09009KT 09/08 A2979 RMK A01 T00900083  RH  095%=      5-min Rain = 0
KSW1 230225Z 10010KT 09/08 A2979 RMK A01 T00900083  RH  095%=      5-min Rain = 0
KSW1 230226Z 10011KT 09/08 A2979 RMK A01 T00900083  RH  095%=      5-min Rain = 0
KSW1 230227Z 10012KT 09/08 A2979 RMK A01 T00910084  RH  096%=      5-min Rain = 0
KSW1 230228Z 10014KT 09/09 A2979 RMK A01 T00920086  RH  096%=      5-min Rain = 0
KSW1 230229Z 10013KT 09/09 A2979 RMK A01 T00930088  RH  097%=      5-min Rain = 0
KSW1 230230Z 11013KT 09/09 A2979 RMK A01 T00940089  RH  097%=      5-min Rain = 0
KSW1 230231Z 11011KT 09/09 A2978 RMK A01 T00940089  RH  097%=      5-min Rain = 0
KSW1 230232Z 11012KT 09/09 A2978 RMK A01 T00940089  RH  097%=      5-min Rain = 0
KSW1 230233Z 11013KT 09/09 A2979 RMK A01 T00940089  RH  097%=      5-min Rain = 0
KSW1 230234Z 11013KT 10/09 A2979 RMK A01 T00950090  RH  097%=      5-min Rain = 0
KSW1 230235Z 12013KT 10/09 A2979 RMK A01 T00950091  RH  097%=      5-min Rain = 0
KSW1 230236Z 11013G18KT 10/09 A2979 RMK A01 T00950091  RH  097%=      5-min Rain = 0
KSW1 230237Z 12014KT 10/09 A2979 RMK A01 T00960092  RH  097%=      5-min Rain = 0
KSW1 230238Z 12013KT 10/09 A2979 RMK A01 T00960092  RH  097%=      5-min Rain = 0
KSW1 230239Z 12011KT 10/09 A2979 RMK A01 T00960092  RH  097%=      5-min Rain = 0
KSW1 230240Z 12017KT 10/09 A2979 RMK A01 T00970093  RH  098%=      5-min Rain = 0
KSW1 230241Z 12014KT 10/09 A2979 RMK A01 T00970093  RH  098%=      5-min Rain = 0
KSW1 230242Z 12015KT 10/09 A2979 RMK A01 T00970094  RH  098%=      5-min Rain = 0
KSW1 230243Z 12016KT 10/09 A2979 RMK A01 T00970094  RH  098%=      5-min Rain = 0
KSW1 230244Z 12017KT 10/09 A2978 RMK A01 T00980094  RH  098%=      5-min Rain = 0
KSW1 230245Z 12014G19KT 10/10 A2978 RMK A01 T00980095  RH  098%=      5-min Rain = 0
KSW1 230246Z 12013KT 10/10 A2978 RMK A01 T00980095  RH  098%=      5-min Rain = 0
KSW1 230247Z 13013KT 10/10 A2978 RMK A01 T00980095  RH  098%=      5-min Rain = 0
KSW1 230248Z 12014KT 10/10 A2978 RMK A01 T00990096  RH  098%=      5-min Rain = 0
KSW1 230249Z 13014KT 10/10 A2978 RMK A01 T00990096  RH  098%=      5-min Rain = 0
KSW1 230250Z 12015KT 10/10 A2978 RMK A01 T00990096  RH  098%=      5-min Rain = 0
KSW1 230251Z 12014G19KT 10/10 A2978 RMK A01 T01000097  RH  098%=      5-min Rain = 0
KSW1 230252Z 13013G18KT 10/10 A2978 RMK A01 T01000098  RH  098%=      5-min Rain = 0
KSW1 230253Z 13014KT 10/10 A2978 RMK A01 T01000098  RH  098%=      5-min Rain = 0
KSW1 230254Z 12016G21KT 10/10 A2977 RMK A01 T01010099  RH  098%=      5-min Rain = 0
KSW1 230255Z 13014G19KT 10/10 A2977 RMK A01 T01020099  RH  098%=      5-min Rain = 0
KSW1 230256Z 13016G21KT 10/10 A2977 RMK A01 T01020100  RH  098%=      5-min Rain = 0
KSW1 230257Z 13016KT 10/10 A2977 RMK A01 T01030100  RH  098%=      5-min Rain = 0
KSW1 230258Z 12016KT 10/10 A2977 RMK A01 T01030100  RH  098%=      5-min Rain = 0
KSW1 230259Z 13016KT 10/10 A2977 RMK A01 T01030101  RH  098%=      5-min Rain = 0
KSW1 230300Z 12017KT 10/10 A2977 RMK A01 T01040101  RH  098%=      5-min Rain = 0
KSW1 230301Z 12018KT 10/10 A2977 RMK A01 T01040102  RH  098%=      5-min Rain = 0
KSW1 230302Z 12015G20KT 11/10 A2976 RMK A01 T01050102  RH  098%=      5-min Rain = 0
KSW1 230303Z 13013KT 11/10 A2977 RMK A01 T01050102  RH  098%=      5-min Rain = 0
KSW1 230304Z 13015G21KT 11/10 A2977 RMK A01 T01050102  RH  098%=      5-min Rain = 0
KSW1 230305Z 13019G24KT 11/10 A2977 RMK A01 T01050102  RH  098%=      5-min Rain = 0
KSW1 230306Z 14017KT 11/10 A2977 RMK A01 T01060103  RH  098%=      5-min Rain = 0
KSW1 230307Z 13016KT 11/10 A2977 RMK A01 T01060102  RH  098%=      5-min Rain = 0
KSW1 230308Z 13017G22KT 11/10 A2977 RMK A01 T01060102  RH  098%=      5-min Rain = 0
KSW1 230309Z 13018KT 11/10 A2977 RMK A01 T01060103  RH  098%=      5-min Rain = 0
KSW1 230310Z 12019G25KT 11/10 A2976 RMK A01 T01070103  RH  097%=      5-min Rain = 0
KSW1 230311Z 13018G23KT 11/10 A2976 RMK A01 T01070103  RH  097%=      5-min Rain = 0
KSW1 230312Z 13019KT 11/10 A2976 RMK A01 T01070103  RH  097%=      5-min Rain = 0
KSW1 230313Z 13015KT 11/10 A2976 RMK A01 T01070103  RH  097%=      5-min Rain = 0
KSW1 230314Z 13016KT 11/10 A2976 RMK A01 T01070103  RH  097%=      5-min Rain = 0
KSW1 230315Z 13022KT 11/10 A2976 RMK A01 T01070103  RH  097%=      5-min Rain = 0
KSW1 230316Z 13018KT 11/10 A2977 RMK A01 T01080103  RH  097%=      5-min Rain = 0
KSW1 230317Z 13017KT 11/10 A2977 RMK A01 T01080103  RH  097%=      5-min Rain = 0
KSW1 230318Z 13016G22KT 11/10 A2977 RMK A01 T01080103  RH  097%=      5-min Rain = 0
KSW1 230319Z 13019G24KT 11/10 A2976 RMK A01 T01080103  RH  097%=      5-min Rain = 0
KSW1 230320Z 12021G26KT 11/10 A2977 RMK A01 T01080103  RH  097%=      5-min Rain = 0
KSW1 230321Z 12018G24KT 11/10 A2977 RMK A01 T01080103  RH  097%=      5-min Rain = 0
KSW1 230322Z 13018G24KT 11/10 A2977 RMK A01 T01080103  RH  097%=      5-min Rain = 0
KSW1 230323Z 13019KT 11/10 A2977 RMK A01 T01080103  RH  097%=      5-min Rain = 0
KSW1 230324Z 13017G23KT 11/10 A2977 RMK A01 T01080103  RH  097%=      5-min Rain = 0
KSW1 230325Z 13020KT 11/10 A2977 RMK A01 T01080104  RH  097%=      5-min Rain = 0
KSW1 230326Z 13017G23KT 11/10 A2977 RMK A01 T01080104  RH  097%=      5-min Rain = 0
KSW1 230327Z 13023KT 11/10 A2977 RMK A01 T01080104  RH  097%=      5-min Rain = 0
KSW1 230328Z 13018KT 11/10 A2977 RMK A01 T01080104  RH  097%=      5-min Rain = 0
KSW1 230329Z 13014KT 11/10 A2977 RMK A01 T01080104  RH  097%=      5-min Rain = 0
KSW1 230330Z 13017KT 11/10 A2977 RMK A01 T01080104  RH  097%=      5-min Rain = 0
KSW1 230331Z 13015G22KT 11/10 A2977 RMK A01 T01090104  RH  097%=      5-min Rain = 0
KSW1 230332Z 13016KT 11/10 A2977 RMK A01 T01090104  RH  097%=      5-min Rain = 0
KSW1 230333Z 13020G26KT 11/10 A2977 RMK A01 T01090104  RH  097%=      5-min Rain = 0
KSW1 230334Z 13018KT 11/11 A2977 RMK A01 T01090105  RH  097%=      5-min Rain = 0
KSW1 230335Z 13020KT 11/11 A2977 RMK A01 T01090105  RH  097%=      5-min Rain = 0
KSW1 230336Z 13017KT 11/11 A2977 RMK A01 T01090105  RH  097%=      5-min Rain = 0
KSW1 230337Z 13016KT 11/11 A2977 RMK A01 T01090105  RH  097%=      5-min Rain = 0
KSW1 230338Z 13017KT 11/11 A2976 RMK A01 T01090105  RH  097%=      5-min Rain = 0
KSW1 230339Z 13015G20KT 11/11 A2976 RMK A01 T01090105  RH  097%=      5-min Rain = 0
KSW1 230340Z 13018KT 11/11 A2976 RMK A01 T01090105  RH  097%=      5-min Rain = 0
KSW1 230341Z 13017G22KT 11/11 A2976 RMK A01 T01090105  RH  097%=      5-min Rain = 0
KSW1 230342Z 13018G25KT 11/11 A2976 RMK A01 T01090105  RH  097%=      5-min Rain = 0
KSW1 230343Z 13020G26KT 11/11 A2976 RMK A01 T01100106  RH  097%=      5-min Rain = 0
KSW1 230344Z 13021KT 11/11 A2976 RMK A01 T01100106  RH  097%=      5-min Rain = 0
KSW1 230345Z 13017KT 11/11 A2976 RMK A01 T01100106  RH  097%=      5-min Rain = 0
KSW1 230346Z 13019KT 11/11 A2976 RMK A01 T01100106  RH  097%=      5-min Rain = 0
KSW1 230347Z 12014KT 11/11 A2976 RMK A01 T01100106  RH  097%=      5-min Rain = 0
KSW1 230348Z 13016G22KT 11/11 A2976 RMK A01 T01100106  RH  097%=      5-min Rain = 0
KSW1 230349Z 13019KT 11/11 A2976 RMK A01 T01100106  RH  097%=      5-min Rain = 0
KSW1 230350Z 13018G24KT 11/11 A2976 RMK A01 T01110107  RH  097%=      5-min Rain = 0
KSW1 230351Z 13023KT 11/11 A2976 RMK A01 T01110107  RH  097%=      5-min Rain = 0
KSW1 230352Z 13017G22KT 11/11 A2975 RMK A01 T01110107  RH  097%=      5-min Rain = 0
KSW1 230353Z 13019G25KT 11/11 A2975 RMK A01 T01110107  RH  097%=      5-min Rain = 0
KSW1 230354Z 13017KT 11/11 A2976 RMK A01 T01110107  RH  097%=      5-min Rain = 0
KSW1 230355Z 13018KT 11/11 A2976 RMK A01 T01110107  RH  097%=      5-min Rain = 0
KSW1 230356Z 13021G26KT 11/11 A2975 RMK A01 T01110107  RH  097%=      5-min Rain = 0
KSW1 230357Z 13020G26KT 11/11 A2975 RMK A01 T01110107  RH  097%=      5-min Rain = 0
KSW1 230358Z 13020KT 11/11 A2975 RMK A01 T01110107  RH  097%=      5-min Rain = 0
KSW1 230359Z 13024G29KT 11/11 A2975 RMK A01 T01110107  RH  097%=      5-min Rain = 0
KSW1 230400Z 13023G28KT 11/11 A2975 RMK A01 T01110107  RH  098%=      5-min Rain = 0
KSW1 230401Z 13018G25KT 11/11 A2975 RMK A01 T01110107  RH  098%=      5-min Rain = 0
KSW1 230402Z 13021KT 11/11 A2975 RMK A01 T01110107  RH  098%=      5-min Rain = 0
KSW1 230403Z 13022G28KT 11/11 A2975 RMK A01 T01110107  RH  098%=      5-min Rain = 0
KSW1 230404Z 13023G29KT 11/11 A2975 RMK A01 T01110107  RH  098%=      5-min Rain = 0
KSW1 230405Z 13021G27KT 11/11 A2975 RMK A01 T01110107  RH  098%=      5-min Rain = 0
KSW1 230406Z 13023G28KT 11/11 A2975 RMK A01 T01110108  RH  098%=      5-min Rain = 0
KSW1 230407Z 13021KT 11/11 A2975 RMK A01 T01110107  RH  098%=      5-min Rain = 0
KSW1 230408Z 13022G29KT 11/11 A2975 RMK A01 T01110108  RH  098%=      5-min Rain = 0
KSW1 230409Z 13019G25KT 11/11 A2975 RMK A01 T01110107  RH  098%=      5-min Rain = 0
KSW1 230410Z 12023KT 11/11 A2975 RMK A01 T01110108  RH  098%=      5-min Rain = 0
KSW1 230411Z 13020G25KT 11/11 A2975 RMK A01 T01110108  RH  098%=      5-min Rain = 0
KSW1 230412Z 13020KT 11/11 A2975 RMK A01 T01110108  RH  098%=      5-min Rain = 0
KSW1 230413Z 13020G28KT 11/11 A2975 RMK A01 T01110108  RH  098%=      5-min Rain = 0
KSW1 230414Z 13023KT 11/11 A2975 RMK A01 T01110108  RH  098%=      5-min Rain = 0
KSW1 230415Z 13019G25KT 11/11 A2975 RMK A01 T01110108  RH  098%=      5-min Rain = 0
KSW1 230416Z 13017KT 11/11 A2975 RMK A01 T01110108  RH  098%=      5-min Rain = 0
KSW1 230417Z 14016G21KT 11/11 A2975 RMK A01 T01110108  RH  098%=      5-min Rain = 0
KSW1 230418Z 13022G30KT 11/11 A2975 RMK A01 T01120109  RH  098%=      5-min Rain = 0
KSW1 230419Z 13019KT 11/11 A2975 RMK A01 T01120109  RH  098%=      5-min Rain = 0
KSW1 230420Z 13017G23KT 11/11 A2975 RMK A01 T01120109  RH  098%=      5-min Rain = 0
KSW1 230421Z 14022G28KT 11/11 A2975 RMK A01 T01120109  RH  098%=      5-min Rain = 0
KSW1 230422Z 13020G25KT 11/11 A2975 RMK A01 T01130110  RH  098%=      5-min Rain = 0
KSW1 230423Z 14018KT 11/11 A2975 RMK A01 T01130110  RH  098%=      5-min Rain = 0
KSW1 230424Z 14021KT 11/11 A2974 RMK A01 T01130110  RH  098%=      5-min Rain = 0
KSW1 230425Z 13021KT 11/11 A2975 RMK A01 T01130110  RH  098%=      5-min Rain = 0
KSW1 230426Z 13020G25KT 11/11 A2975 RMK A01 T01130111  RH  098%=      5-min Rain = 0
KSW1 230427Z 14018G25KT 11/11 A2975 RMK A01 T01140111  RH  098%=      5-min Rain = 0
KSW1 230428Z 13019G25KT 11/11 A2975 RMK A01 T01140111  RH  098%=      5-min Rain = 0
KSW1 230429Z 13021KT 11/11 A2975 RMK A01 T01140111  RH  098%=      5-min Rain = 0
KSW1 230430Z 13018G23KT 11/11 A2975 RMK A01 T01140111  RH  098%=      5-min Rain = 0
KSW1 230431Z 13016G23KT 11/11 A2975 RMK A01 T01140111  RH  098%=      5-min Rain = 0
KSW1 230432Z 13019G27KT 11/11 A2975 RMK A01 T01140111  RH  098%=      5-min Rain = 0
KSW1 230433Z 13021G27KT 11/11 A2974 RMK A01 T01140111  RH  098%=      5-min Rain = 0
KSW1 230434Z 13018KT 12/11 A2974 RMK A01 T01150112  RH  098%=      5-min Rain = 0
KSW1 230435Z 14024G29KT 12/11 A2974 RMK A01 T01150112  RH  098%=      5-min Rain = 0
KSW1 230436Z 14022G28KT 12/11 A2975 RMK A01 T01150112  RH  098%=      5-min Rain = 0
KSW1 230437Z 13021KT 12/11 A2974 RMK A01 T01150112  RH  098%=      5-min Rain = 0
KSW1 230438Z 14021KT 12/11 A2974 RMK A01 T01150112  RH  098%=      5-min Rain = 0
KSW1 230439Z 14017KT 12/11 A2974 RMK A01 T01150112  RH  098%=      5-min Rain = 0
KSW1 230440Z 14017KT 12/11 A2974 RMK A01 T01150111  RH  098%=      5-min Rain = 0
KSW1 230441Z 14019G24KT 12/11 A2975 RMK A01 T01150112  RH  098%=      5-min Rain = 0
KSW1 230442Z 14019G24KT 12/11 A2975 RMK A01 T01160112  RH  098%=      5-min Rain = 0
KSW1 230443Z 14020KT 12/11 A2975 RMK A01 T01160112  RH  098%=      5-min Rain = 0
KSW1 230444Z 14014G21KT 12/11 A2975 RMK A01 T01160112  RH  097%=      5-min Rain = 0
KSW1 230445Z 13016G22KT 12/11 A2975 RMK A01 T01160112  RH  097%=      5-min Rain = 0
KSW1 230446Z 14018G25KT 12/11 A2975 RMK A01 T01170112  RH  097%=      5-min Rain = 0
KSW1 230447Z 14019KT 12/11 A2974 RMK A01 T01170112  RH  097%=      5-min Rain = 0
KSW1 230448Z 13019KT 12/11 A2974 RMK A01 T01170112  RH  097%=      5-min Rain = 0
KSW1 230449Z 14018G23KT 12/11 A2974 RMK A01 T01170113  RH  097%=      5-min Rain = 0
KSW1 230450Z 14014KT 12/11 A2974 RMK A01 T01170112  RH  097%=      5-min Rain = 0
KSW1 230451Z 14017G22KT 12/11 A2974 RMK A01 T01180113  RH  097%=      5-min Rain = 0
KSW1 230452Z 14016KT 12/11 A2974 RMK A01 T01180113  RH  097%=      5-min Rain = 0
KSW1 230453Z 14020KT 12/11 A2974 RMK A01 T01180113  RH  097%=      5-min Rain = 0
KSW1 230454Z 14016KT 12/11 A2974 RMK A01 T01180112  RH  097%=      5-min Rain = 0
KSW1 230455Z 14016KT 12/11 A2974 RMK A01 T01180112  RH  097%=      5-min Rain = 0
KSW1 230456Z 14021KT 12/11 A2974 RMK A01 T01180113  RH  096%=      5-min Rain = 0
KSW1 230457Z 14018G23KT 12/11 A2974 RMK A01 T01180112  RH  096%=      5-min Rain = 0
KSW1 230458Z 14017KT 12/11 A2974 RMK A01 T01180112  RH  096%=      5-min Rain = 0
KSW1 230459Z 14017G23KT 12/11 A2974 RMK A01 T01180113  RH  096%=      5-min Rain = 0
KSW1 230500Z 15018KT 12/11 A2974 RMK A01 T01180113  RH  096%=      5-min Rain = 0
KSW1 230501Z 14018KT 12/11 A2974 RMK A01 T01180113  RH  096%=      5-min Rain = 0
KSW1 230502Z 14017KT 12/11 A2974 RMK A01 T01180112  RH  096%=      5-min Rain = 0
KSW1 230503Z 14019KT 12/11 A2974 RMK A01 T01180112  RH  096%=      5-min Rain = 0
KSW1 230504Z 14019G25KT 12/11 A2974 RMK A01 T01190112  RH  096%=      5-min Rain = 0
KSW1 230505Z 14016KT 12/11 A2974 RMK A01 T01190113  RH  096%=      5-min Rain = 0
KSW1 230506Z 13016KT 12/11 A2974 RMK A01 T01190113  RH  096%=      5-min Rain = 0
KSW1 230507Z 14014KT 12/11 A2974 RMK A01 T01190112  RH  096%=      5-min Rain = 0
KSW1 230508Z 14021G27KT 12/11 A2973 RMK A01 T01190113  RH  096%=      5-min Rain = 0
KSW1 230509Z 15022KT 12/11 A2973 RMK A01 T01190113  RH  096%=      5-min Rain = 0
KSW1 230510Z 14022KT 12/11 A2973 RMK A01 T01190113  RH  096%=      5-min Rain = 0
KSW1 230511Z 14018KT 12/11 A2973 RMK A01 T01190112  RH  096%=      5-min Rain = 0
KSW1 230512Z 14021KT 12/11 A2973 RMK A01 T01190113  RH  096%=      5-min Rain = 0
KSW1 230513Z 14021KT 12/11 A2972 RMK A01 T01190112  RH  095%=      5-min Rain = 0
KSW1 230514Z 13018G24KT 12/11 A2972 RMK A01 T01190112  RH  095%=      5-min Rain = 0
KSW1 230515Z 14020G25KT 12/11 A2972 RMK A01 T01190112  RH  095%=      5-min Rain = 0
KSW1 230516Z 15020G27KT 12/11 A2972 RMK A01 T01200112  RH  095%=      5-min Rain = 0
KSW1 230517Z 15020G26KT 12/11 A2973 RMK A01 T01190112  RH  095%=      5-min Rain = 0
KSW1 230518Z 15018G23KT 12/11 A2973 RMK A01 T01200112  RH  095%=      5-min Rain = 0
KSW1 230519Z 15019KT 12/11 A2973 RMK A01 T01200113  RH  095%=      5-min Rain = 0
KSW1 230520Z 15021KT 12/11 A2973 RMK A01 T01200113  RH  095%=      5-min Rain = 0
KSW1 230521Z 14022KT 12/11 A2972 RMK A01 T01200113  RH  095%=      5-min Rain = 0
KSW1 230522Z 14020G25KT 12/11 A2972 RMK A01 T01200113  RH  095%=      5-min Rain = 0
KSW1 230523Z 14022KT 12/11 A2972 RMK A01 T01200113  RH  096%=      5-min Rain = 0
KSW1 230524Z 14022KT 12/11 A2972 RMK A01 T01200113  RH  096%=      5-min Rain = 0
KSW1 230525Z 14021G27KT 12/11 A2972 RMK A01 T01200114  RH  096%=      5-min Rain = 0
KSW1 230526Z 15022KT 12/11 A2972 RMK A01 T01200114  RH  096%=      5-min Rain = 0
KSW1 230527Z 15018KT 12/11 A2972 RMK A01 T01200114  RH  096%=      5-min Rain = 0
KSW1 230528Z 14018KT 12/11 A2972 RMK A01 T01200114  RH  096%=      5-min Rain = 0
KSW1 230529Z 14017KT 12/11 A2972 RMK A01 T01200114  RH  096%=      5-min Rain = 0
KSW1 230530Z 14021G28KT 12/11 A2971 RMK A01 T01200114  RH  096%=      5-min Rain = 0
KSW1 230531Z 14023G29KT 12/11 A2971 RMK A01 T01200114  RH  096%=      5-min Rain = 0
KSW1 230532Z 14024KT 12/11 A2971 RMK A01 T01200114  RH  096%=      5-min Rain = 0
KSW1 230533Z 14025G30KT 12/11 A2971 RMK A01 T01200114  RH  096%=      5-min Rain = 0
KSW1 230534Z 14026KT 12/11 A2971 RMK A01 T01200114  RH  096%=      5-min Rain = 0
KSW1 230535Z 14022KT 12/11 A2971 RMK A01 T01200114  RH  096%=      5-min Rain = 0
KSW1 230536Z 14020KT 12/11 A2971 RMK A01 T01200113  RH  096%=      5-min Rain = 0
KSW1 230537Z 14018KT 12/11 A2971 RMK A01 T01200113  RH  096%=      5-min Rain = 0
KSW1 230538Z 14024G36KT 12/11 A297 RMK A01 T01200113  RH  096%=      5-min Rain = 0
KSW1 230539Z 15026KT 12/11 A297 RMK A01 T01200113  RH  095%=      5-min Rain = 0
KSW1 230540Z 14021G26KT 12/11 A297 RMK A01 T01200112  RH  095%=      5-min Rain = 0
KSW1 230541Z 14025G30KT 12/11 A297 RMK A01 T01200112  RH  095%=      5-min Rain = 0
KSW1 230542Z 14024G30KT 12/11 A297 RMK A01 T01200112  RH  095%=      5-min Rain = 0
KSW1 230543Z 14025G32KT 12/11 A297 RMK A01 T01200112  RH  095%=      5-min Rain = 0
KSW1 230544Z 14024G32KT 12/11 A297 RMK A01 T01200112  RH  095%=      5-min Rain = 0
KSW1 230545Z 14019G25KT 12/11 A297 RMK A01 T01200112  RH  095%=      5-min Rain = 0
KSW1 230546Z 14021G29KT 12/11 A297 RMK A01 T01200112  RH  095%=      5-min Rain = 0
KSW1 230547Z 15024G31KT 12/11 A2969 RMK A01 T01190112  RH  095%=      5-min Rain = 0
KSW1 230548Z 14025G36KT 12/11 A297 RMK A01 T01190111  RH  095%=      5-min Rain = 0
KSW1 230549Z 14027G32KT 12/11 A2969 RMK A01 T01190111  RH  095%=      5-min Rain = 0
KSW1 230550Z 14024G31KT 12/11 A2969 RMK A01 T01180110  RH  095%=      5-min Rain = 0
KSW1 230551Z 14023G29KT 12/11 A2969 RMK A01 T01180110  RH  095%=      5-min Rain = 0
KSW1 230552Z 14019KT 12/11 A2969 RMK A01 T01180110  RH  095%=      5-min Rain = 0
KSW1 230553Z 14021G28KT 12/11 A2969 RMK A01 T01180110  RH  095%=      5-min Rain = 0
KSW1 230554Z 14027G32KT 12/11 A2969 RMK A01 T01170110  RH  095%=      5-min Rain = 0
KSW1 230555Z 14027G33KT 12/11 A2968 RMK A01 T01170109  RH  095%=      5-min Rain = 0
KSW1 230556Z 14025G33KT 12/11 A2969 RMK A01 T01170109  RH  095%=      5-min Rain = 0
KSW1 230557Z 14024G31KT 12/11 A2969 RMK A01 T01170109  RH  095%=      5-min Rain = 0
KSW1 230558Z 14028G34KT 12/11 A2968 RMK A01 T01170108  RH  094%=      5-min Rain = 0
KSW1 230559Z 14028KT 12/11 A2968 RMK A01 T01160107  RH  094%=      5-min Rain = 0

Page generated in 0.2107 seconds.